Observation data for Van Horn on 06/16/2019      Previous  Date  Next       Current Mesonet Observations  Soil Data  Daily Summary Page  Observations in Plain Language
KVA1 160500Z 26005KT 26/M01 A2996 RMK A01 T02581007  RH  017%=      5-min Rain = 0
KVA1 160501Z 25004KT 26/M01 A2995 RMK A01 T02591007  RH  017%=      5-min Rain = 0
KVA1 160502Z 25004KT 26/M01 A2995 RMK A01 T02591007  RH  017%=      5-min Rain = 0
KVA1 160503Z 25005KT 26/M01 A2995 RMK A01 T02591006  RH  018%=      5-min Rain = 0
KVA1 160504Z 25006KT 26/M01 A2995 RMK A01 T02581006  RH  018%=      5-min Rain = 0
KVA1 160505Z 25006KT 26/M01 A2995 RMK A01 T02571007  RH  018%=      5-min Rain = 0
KVA1 160506Z 25006KT 26/M01 A2995 RMK A01 T02561006  RH  018%=      5-min Rain = 0
KVA1 160507Z 25005KT 26/M01 A2995 RMK A01 T02561006  RH  018%=      5-min Rain = 0
KVA1 160508Z 25006KT 26/M01 A2995 RMK A01 T02551005  RH  018%=      5-min Rain = 0
KVA1 160509Z 25006KT 26/M01 A2995 RMK A01 T02551005  RH  018%=      5-min Rain = 0
KVA1 160510Z 25006KT 25/M01 A2995 RMK A01 T02541005  RH  018%=      5-min Rain = 0
KVA1 160511Z 25006KT 25/M01 A2995 RMK A01 T02531005  RH  018%=      5-min Rain = 0
KVA1 160512Z 25006KT 25/M01 A2995 RMK A01 T02511005  RH  018%=      5-min Rain = 0
KVA1 160513Z 26006KT 25/M01 A2995 RMK A01 T02501006  RH  019%=      5-min Rain = 0
KVA1 160514Z 26006KT 25/M01 A2995 RMK A01 T02501005  RH  019%=      5-min Rain = 0
KVA1 160515Z 25006KT 25/M01 A2995 RMK A01 T02501006  RH  019%=      5-min Rain = 0
KVA1 160516Z 25007KT 25/M01 A2995 RMK A01 T02501006  RH  019%=      5-min Rain = 0
KVA1 160517Z 25007KT 25/M01 A2995 RMK A01 T02501005  RH  019%=      5-min Rain = 0
KVA1 160518Z 26007KT 25/M01 A2995 RMK A01 T02501006  RH  018%=      5-min Rain = 0
KVA1 160519Z 25007KT 25/M01 A2995 RMK A01 T02511006  RH  018%=      5-min Rain = 0
KVA1 160520Z 25007KT 25/M01 A2995 RMK A01 T02531007  RH  018%=      5-min Rain = 0
KVA1 160521Z 25007KT 25/M01 A2995 RMK A01 T02541006  RH  018%=      5-min Rain = 0
KVA1 160522Z 25007KT 26/M01 A2995 RMK A01 T02551006  RH  018%=      5-min Rain = 0
KVA1 160523Z 25006KT 25/M01 A2995 RMK A01 T02541006  RH  018%=      5-min Rain = 0
KVA1 160524Z 25006KT 25/M01 A2995 RMK A01 T02531006  RH  018%=      5-min Rain = 0
KVA1 160525Z 25006KT 25/M01 A2995 RMK A01 T02521006  RH  018%=      5-min Rain = 0
KVA1 160526Z 25006KT 25/M01 A2995 RMK A01 T02521007  RH  018%=      5-min Rain = 0
KVA1 160527Z 24006KT 25/M01 A2995 RMK A01 T02521007  RH  018%=      5-min Rain = 0
KVA1 160528Z 24006KT 25/M01 A2995 RMK A01 T02531008  RH  018%=      5-min Rain = 0
KVA1 160529Z 24007KT 25/M01 A2995 RMK A01 T02531008  RH  018%=      5-min Rain = 0
KVA1 160530Z 24007KT 25/M01 A2995 RMK A01 T02531008  RH  018%=      5-min Rain = 0
KVA1 160531Z 24007KT 25/M01 A2995 RMK A01 T02531008  RH  018%=      5-min Rain = 0
KVA1 160532Z 24007KT 25/M01 A2995 RMK A01 T02531008  RH  018%=      5-min Rain = 0
KVA1 160533Z 23006KT 25/M01 A2995 RMK A01 T02531008  RH  018%=      5-min Rain = 0
KVA1 160534Z 23006KT 25/M01 A2995 RMK A01 T02521008  RH  018%=      5-min Rain = 0
KVA1 160535Z 23006KT 25/M01 A2995 RMK A01 T02521009  RH  018%=      5-min Rain = 0
KVA1 160536Z 23006KT 25/M01 A2995 RMK A01 T02521009  RH  018%=      5-min Rain = 0
KVA1 160537Z 23006KT 25/M01 A2995 RMK A01 T02531009  RH  018%=      5-min Rain = 0
KVA1 160538Z 23007KT 25/M01 A2995 RMK A01 T02521008  RH  018%=      5-min Rain = 0
KVA1 160539Z 23007KT 25/M01 A2995 RMK A01 T02521008  RH  018%=      5-min Rain = 0
KVA1 160540Z 23007KT 25/M01 A2995 RMK A01 T02521008  RH  018%=      5-min Rain = 0
KVA1 160541Z 22006KT 25/M01 A2995 RMK A01 T02521009  RH  018%=      5-min Rain = 0
KVA1 160542Z 23006KT 25/M01 A2995 RMK A01 T02521009  RH  018%=      5-min Rain = 0
KVA1 160543Z 23007KT 25/M01 A2995 RMK A01 T02521009  RH  018%=      5-min Rain = 0
KVA1 160544Z 22006KT 25/M01 A2995 RMK A01 T02531009  RH  018%=      5-min Rain = 0
KVA1 160545Z 23006KT 25/M01 A2995 RMK A01 T02521009  RH  018%=      5-min Rain = 0
KVA1 160546Z 22006KT 25/M01 A2995 RMK A01 T02521008  RH  018%=      5-min Rain = 0
KVA1 160547Z 23005KT 25/M01 A2995 RMK A01 T02501008  RH  018%=      5-min Rain = 0
KVA1 160548Z 23006KT 25/M01 A2995 RMK A01 T02491009  RH  018%=      5-min Rain = 0
KVA1 160549Z 22006KT 25/M01 A2995 RMK A01 T02481011  RH  018%=      5-min Rain = 0
KVA1 160550Z 22005KT 25/M01 A2995 RMK A01 T02511011  RH  018%=      5-min Rain = 0
KVA1 160551Z 22006KT 25/M01 A2995 RMK A01 T02541011  RH  017%=      5-min Rain = 0
KVA1 160552Z 22006KT 26/M01 A2995 RMK A01 T02561010  RH  017%=      5-min Rain = 0
KVA1 160553Z 22006KT 26/M01 A2995 RMK A01 T02561010  RH  017%=      5-min Rain = 0
KVA1 160554Z 21005KT 26/M01 A2995 RMK A01 T02561010  RH  017%=      5-min Rain = 0
KVA1 160555Z 22006KT 26/M01 A2995 RMK A01 T02561010  RH  017%=      5-min Rain = 0
KVA1 160556Z 23005KT 26/M01 A2995 RMK A01 T02571012  RH  017%=      5-min Rain = 0
KVA1 160557Z 22004KT 26/M01 A2995 RMK A01 T02581011  RH  017%=      5-min Rain = 0
KVA1 160558Z 23004KT 26/M01 A2995 RMK A01 T02581011  RH  017%=      5-min Rain = 0
KVA1 160559Z 24005KT 26/M01 A2995 RMK A01 T02571010  RH  017%=      5-min Rain = 0
KVA1 160600Z 22005KT 26/M01 A2995 RMK A01 T02561010  RH  017%=      5-min Rain = 0
KVA1 160601Z 22007KT 26/M01 A2995 RMK A01 T02551010  RH  017%=      5-min Rain = 0
KVA1 160602Z 22006KT 25/M01 A2995 RMK A01 T02541009  RH  018%=      5-min Rain = 0
KVA1 160603Z 22005KT 25/M01 A2995 RMK A01 T02531008  RH  018%=      5-min Rain = 0
KVA1 160604Z 22005KT 25/M01 A2995 RMK A01 T02521008  RH  018%=      5-min Rain = 0
KVA1 160605Z 21006KT 25/M01 A2995 RMK A01 T02511008  RH  018%=      5-min Rain = 0
KVA1 160606Z 22007KT 25/M01 A2995 RMK A01 T02511008  RH  018%=      5-min Rain = 0
KVA1 160607Z 22006KT 25/M01 A2995 RMK A01 T02501007  RH  018%=      5-min Rain = 0
KVA1 160608Z 21007KT 25/M01 A2995 RMK A01 T02491008  RH  018%=      5-min Rain = 0
KVA1 160609Z 21007KT 25/M01 A2995 RMK A01 T02511008  RH  018%=      5-min Rain = 0
KVA1 160610Z 21006KT 25/M01 A2995 RMK A01 T02521007  RH  018%=      5-min Rain = 0
KVA1 160611Z 22005KT 25/M01 A2995 RMK A01 T02521006  RH  018%=      5-min Rain = 0
KVA1 160612Z 22005KT 25/M01 A2995 RMK A01 T02501005  RH  019%=      5-min Rain = 0
KVA1 160613Z 20005KT 25/M01 A2995 RMK A01 T02481005  RH  019%=      5-min Rain = 0
KVA1 160614Z 20006KT 25/M01 A2995 RMK A01 T02461005  RH  019%=      5-min Rain = 0
KVA1 160615Z 21006KT 25/M01 A2995 RMK A01 T02451005  RH  019%=      5-min Rain = 0
KVA1 160616Z 21005KT 24/M01 A2995 RMK A01 T02441006  RH  019%=      5-min Rain = 0
KVA1 160617Z 20005KT 24/M01 A2995 RMK A01 T02431005  RH  019%=      5-min Rain = 0
KVA1 160618Z 20004KT 24/M01 A2995 RMK A01 T02411005  RH  020%=      5-min Rain = 0
KVA1 160619Z 21003KT 24/M01 A2995 RMK A01 T02401006  RH  020%=      5-min Rain = 0
KVA1 160620Z 20004KT 24/M01 A2995 RMK A01 T02381005  RH  020%=      5-min Rain = 0
KVA1 160621Z 20004KT 24/M01 A2995 RMK A01 T02361006  RH  020%=      5-min Rain = 0
KVA1 160622Z 19005KT 24/M01 A2995 RMK A01 T02351006  RH  020%=      5-min Rain = 0
KVA1 160623Z 19006KT 24/M01 A2995 RMK A01 T02351006  RH  020%=      5-min Rain = 0
KVA1 160624Z 20006KT 23/M01 A2995 RMK A01 T02341006  RH  020%=      5-min Rain = 0
KVA1 160625Z 19005KT 23/M01 A2995 RMK A01 T02331006  RH  020%=      5-min Rain = 0
KVA1 160626Z 20005KT 23/M01 A2995 RMK A01 T02331006  RH  021%=      5-min Rain = 0
KVA1 160627Z 19006KT 23/M01 A2995 RMK A01 T02321005  RH  021%=      5-min Rain = 0
KVA1 160628Z 20006KT 23/M00 A2995 RMK A01 T02321004  RH  021%=      5-min Rain = 0
KVA1 160629Z 21006KT 23/M00 A2995 RMK A01 T02321004  RH  021%=      5-min Rain = 0
KVA1 160630Z 20007KT 23/M00 A2995 RMK A01 T02311003  RH  021%=      5-min Rain = 0
KVA1 160631Z 20007KT 23/M00 A2995 RMK A01 T02301003  RH  021%=      5-min Rain = 0
KVA1 160632Z 20007KT 23/M00 A2995 RMK A01 T02301002  RH  021%=      5-min Rain = 0
KVA1 160633Z 21007KT 23/M00 A2995 RMK A01 T02301002  RH  021%=      5-min Rain = 0
KVA1 160634Z 21007KT 23/M00 A2995 RMK A01 T02291003  RH  021%=      5-min Rain = 0
KVA1 160635Z 21007KT 23/M00 A2995 RMK A01 T02291002  RH  022%=      5-min Rain = 0
KVA1 160636Z 21008KT 23/M00 A2995 RMK A01 T02291003  RH  021%=      5-min Rain = 0
KVA1 160637Z 21007KT 23/M00 A2995 RMK A01 T02301002  RH  021%=      5-min Rain = 0
KVA1 160638Z 21007KT 23/M00 A2995 RMK A01 T02301003  RH  021%=      5-min Rain = 0
KVA1 160639Z 22007KT 23/M00 A2995 RMK A01 T02301002  RH  021%=      5-min Rain = 0
KVA1 160640Z 22007KT 23/M00 A2995 RMK A01 T02301003  RH  021%=      5-min Rain = 0
KVA1 160641Z 23007KT 23/M00 A2995 RMK A01 T02311003  RH  021%=      5-min Rain = 0
KVA1 160642Z 23007KT 23/M00 A2995 RMK A01 T02311003  RH  021%=      5-min Rain = 0
KVA1 160643Z 21007KT 23/M00 A2995 RMK A01 T02311003  RH  021%=      5-min Rain = 0
KVA1 160644Z 21007KT 23/M00 A2995 RMK A01 T02321003  RH  021%=      5-min Rain = 0
KVA1 160645Z 22007KT 23/M00 A2995 RMK A01 T02321002  RH  021%=      5-min Rain = 0
KVA1 160646Z 22007KT 23/M00 A2995 RMK A01 T02321002  RH  021%=      5-min Rain = 0
KVA1 160647Z 23008KT 23/M00 A2995 RMK A01 T02321003  RH  021%=      5-min Rain = 0
KVA1 160648Z 22007KT 23/M00 A2995 RMK A01 T02331003  RH  021%=      5-min Rain = 0
KVA1 160649Z 23007KT 23/M00 A2995 RMK A01 T02331003  RH  021%=      5-min Rain = 0
KVA1 160650Z 24008KT 23/M00 A2995 RMK A01 T02331003  RH  021%=      5-min Rain = 0
KVA1 160651Z 22009KT 23/M00 A2995 RMK A01 T02331003  RH  021%=      5-min Rain = 0
KVA1 160652Z 22008KT 24/M00 A2995 RMK A01 T02351003  RH  021%=      5-min Rain = 0
KVA1 160653Z 23008KT 24/M00 A2995 RMK A01 T02361003  RH  021%=      5-min Rain = 0
KVA1 160654Z 22010KT 24/M00 A2995 RMK A01 T02371003  RH  020%=      5-min Rain = 0
KVA1 160655Z 21007KT 24/M00 A2995 RMK A01 T02371003  RH  020%=      5-min Rain = 0
KVA1 160656Z 23007KT 24/M00 A2995 RMK A01 T02381003  RH  020%=      5-min Rain = 0
KVA1 160657Z 24007KT 24/M00 A2995 RMK A01 T02361003  RH  021%=      5-min Rain = 0
KVA1 160658Z 23006KT 24/M00 A2995 RMK A01 T02351003  RH  021%=      5-min Rain = 0
KVA1 160659Z 23007KT 23/M00 A2995 RMK A01 T02341003  RH  021%=      5-min Rain = 0
KVA1 160700Z 22008KT 23/M00 A2995 RMK A01 T02321003  RH  021%=      5-min Rain = 0
KVA1 160701Z 22009KT 23/M00 A2995 RMK A01 T02331003  RH  021%=      5-min Rain = 0
KVA1 160702Z 22009KT 23/M00 A2995 RMK A01 T02341003  RH  021%=      5-min Rain = 0
KVA1 160703Z 21009KT 24/M00 A2995 RMK A01 T02361004  RH  020%=      5-min Rain = 0
KVA1 160704Z 22007KT 24/M00 A2995 RMK A01 T02391004  RH  020%=      5-min Rain = 0
KVA1 160705Z 22007KT 24/M00 A2995 RMK A01 T02401004  RH  020%=      5-min Rain = 0
KVA1 160706Z 23006KT 24/M00 A2995 RMK A01 T02401004  RH  020%=      5-min Rain = 0
KVA1 160707Z 23007KT 24/M00 A2995 RMK A01 T02381003  RH  020%=      5-min Rain = 0
KVA1 160708Z 22007KT 24/M00 A2995 RMK A01 T02371004  RH  020%=      5-min Rain = 0
KVA1 160709Z 22008KT 24/M00 A2995 RMK A01 T02361003  RH  021%=      5-min Rain = 0
KVA1 160710Z 22008KT 24/M00 A2995 RMK A01 T02361004  RH  020%=      5-min Rain = 0
KVA1 160711Z 22008KT 24/M00 A2995 RMK A01 T02371004  RH  020%=      5-min Rain = 0
KVA1 160712Z 22007KT 24/M00 A2995 RMK A01 T02371004  RH  020%=      5-min Rain = 0
KVA1 160713Z 23008KT 24/M00 A2995 RMK A01 T02371004  RH  020%=      5-min Rain = 0
KVA1 160714Z 22008KT 24/M00 A2995 RMK A01 T02361003  RH  020%=      5-min Rain = 0
KVA1 160715Z 21008KT 24/M00 A2995 RMK A01 T02351004  RH  021%=      5-min Rain = 0
KVA1 160716Z 21007KT 24/M00 A2995 RMK A01 T02351004  RH  021%=      5-min Rain = 0
KVA1 160717Z 22007KT 24/M01 A2995 RMK A01 T02361005  RH  020%=      5-min Rain = 0
KVA1 160718Z 21008KT 24/M00 A2995 RMK A01 T02361004  RH  020%=      5-min Rain = 0
KVA1 160719Z 22008KT 24/M01 A2995 RMK A01 T02361005  RH  020%=      5-min Rain = 0
KVA1 160720Z 22009KT 24/M01 A2995 RMK A01 T02381005  RH  020%=      5-min Rain = 0
KVA1 160721Z 22010KT 24/M01 A2995 RMK A01 T02391006  RH  020%=      5-min Rain = 0
KVA1 160722Z 23009KT 24/M01 A2995 RMK A01 T02401005  RH  020%=      5-min Rain = 0
KVA1 160723Z 22009KT 24/M01 A2995 RMK A01 T02401005  RH  020%=      5-min Rain = 0
KVA1 160724Z 22009KT 24/M01 A2995 RMK A01 T02411005  RH  020%=      5-min Rain = 0
KVA1 160725Z 22009KT 24/M01 A2995 RMK A01 T02421006  RH  019%=      5-min Rain = 0
KVA1 160726Z 22009KT 24/M01 A2995 RMK A01 T02421005  RH  019%=      5-min Rain = 0
KVA1 160727Z 23008KT 24/M01 A2995 RMK A01 T02421005  RH  019%=      5-min Rain = 0
KVA1 160728Z 22008KT 24/M01 A2995 RMK A01 T02411005  RH  020%=      5-min Rain = 0
KVA1 160729Z 23008KT 24/M01 A2995 RMK A01 T02391005  RH  020%=      5-min Rain = 0
KVA1 160730Z 22008KT 24/M01 A2995 RMK A01 T02381005  RH  020%=      5-min Rain = 0
KVA1 160731Z 22008KT 24/M01 A2995 RMK A01 T02371005  RH  020%=      5-min Rain = 0
KVA1 160732Z 23008KT 24/M01 A2995 RMK A01 T02371005  RH  020%=      5-min Rain = 0
KVA1 160733Z 22009KT 24/M00 A2995 RMK A01 T02361004  RH  020%=      5-min Rain = 0
KVA1 160734Z 24007KT 24/M00 A2995 RMK A01 T02361004  RH  020%=      5-min Rain = 0
KVA1 160735Z 24008KT 23/M00 A2995 RMK A01 T02341004  RH  021%=      5-min Rain = 0
KVA1 160736Z 22008KT 23/M00 A2995 RMK A01 T02321003  RH  021%=      5-min Rain = 0
KVA1 160737Z 23008KT 23/M00 A2995 RMK A01 T02311003  RH  021%=      5-min Rain = 0
KVA1 160738Z 23008KT 23/M00 A2995 RMK A01 T02311003  RH  021%=      5-min Rain = 0
KVA1 160739Z 24007KT 23/M00 A2995 RMK A01 T02311003  RH  021%=      5-min Rain = 0
KVA1 160740Z 24007KT 23/M00 A2995 RMK A01 T02301003  RH  021%=      5-min Rain = 0
KVA1 160741Z 23008KT 23/M00 A2995 RMK A01 T02291003  RH  021%=      5-min Rain = 0
KVA1 160742Z 22009KT 23/M00 A2995 RMK A01 T02281003  RH  022%=      5-min Rain = 0
KVA1 160743Z 22009KT 23/M00 A2995 RMK A01 T02291004  RH  021%=      5-min Rain = 0
KVA1 160744Z 23008KT 23/M00 A2995 RMK A01 T02311004  RH  021%=      5-min Rain = 0
KVA1 160745Z 22008KT 23/M00 A2995 RMK A01 T02321004  RH  021%=      5-min Rain = 0
KVA1 160746Z 23007KT 23/M00 A2995 RMK A01 T02311003  RH  021%=      5-min Rain = 0
KVA1 160747Z 24007KT 23/M00 A2995 RMK A01 T02311003  RH  021%=      5-min Rain = 0
KVA1 160748Z 23008KT 23/M00 A2995 RMK A01 T02291003  RH  021%=      5-min Rain = 0
KVA1 160749Z 24009KT 23/M00 A2995 RMK A01 T02281003  RH  022%=      5-min Rain = 0
KVA1 160750Z 22009KT 23/M00 A2995 RMK A01 T02281003  RH  021%=      5-min Rain = 0
KVA1 160751Z 23008KT 23/M00 A2995 RMK A01 T02281003  RH  022%=      5-min Rain = 0
KVA1 160752Z 23008KT 23/M00 A2995 RMK A01 T02281003  RH  022%=      5-min Rain = 0
KVA1 160753Z 23008KT 23/M00 A2995 RMK A01 T02271003  RH  022%=      5-min Rain = 0
KVA1 160754Z 23008KT 23/M00 A2995 RMK A01 T02271002  RH  022%=      5-min Rain = 0
KVA1 160755Z 23006KT 23/M00 A2995 RMK A01 T02261003  RH  022%=      5-min Rain = 0
KVA1 160756Z 24006KT 23/M00 A2995 RMK A01 T02261002  RH  022%=      5-min Rain = 0
KVA1 160757Z 24008KT 23/M00 A2995 RMK A01 T02251003  RH  022%=      5-min Rain = 0
KVA1 160758Z 23007KT 22/M00 A2994 RMK A01 T02241003  RH  022%=      5-min Rain = 0
KVA1 160759Z 23008KT 22/M00 A2994 RMK A01 T02231002  RH  022%=      5-min Rain = 0
KVA1 160800Z 23008KT 22/M00 A2994 RMK A01 T02231002  RH  022%=      5-min Rain = 0
KVA1 160801Z 23008KT 22/M00 A2994 RMK A01 T02231003  RH  022%=      5-min Rain = 0
KVA1 160802Z 23008KT 22/M00 A2994 RMK A01 T02241002  RH  022%=      5-min Rain = 0
KVA1 160803Z 23008KT 22/M00 A2994 RMK A01 T02241003  RH  022%=      5-min Rain = 0
KVA1 160804Z 23008KT 22/M00 A2994 RMK A01 T02241003  RH  022%=      5-min Rain = 0
KVA1 160805Z 24008KT 22/M00 A2994 RMK A01 T02241003  RH  022%=      5-min Rain = 0
KVA1 160806Z 24007KT 22/M00 A2994 RMK A01 T02241003  RH  022%=      5-min Rain = 0
KVA1 160807Z 23008KT 22/M00 A2994 RMK A01 T02231003  RH  022%=      5-min Rain = 0
KVA1 160808Z 23009KT 22/M00 A2994 RMK A01 T02221003  RH  022%=      5-min Rain = 0
KVA1 160809Z 23010KT 22/M00 A2994 RMK A01 T02221004  RH  022%=      5-min Rain = 0
KVA1 160810Z 22010KT 22/M01 A2994 RMK A01 T02231005  RH  022%=      5-min Rain = 0
KVA1 160811Z 22010KT 23/M01 A2994 RMK A01 T02251005  RH  022%=      5-min Rain = 0
KVA1 160812Z 22010KT 23/M01 A2994 RMK A01 T02261005  RH  022%=      5-min Rain = 0
KVA1 160813Z 22010KT 23/M01 A2994 RMK A01 T02261005  RH  022%=      5-min Rain = 0
KVA1 160814Z 22009KT 23/M01 A2994 RMK A01 T02261005  RH  022%=      5-min Rain = 0
KVA1 160815Z 22009KT 23/M01 A2994 RMK A01 T02261005  RH  022%=      5-min Rain = 0
KVA1 160816Z 22009KT 23/M01 A2994 RMK A01 T02261006  RH  021%=      5-min Rain = 0
KVA1 160817Z 22009KT 23/M01 A2994 RMK A01 T02271007  RH  021%=      5-min Rain = 0
KVA1 160818Z 22009KT 23/M01 A2994 RMK A01 T02281007  RH  021%=      5-min Rain = 0
KVA1 160819Z 22009KT 23/M01 A2994 RMK A01 T02291008  RH  021%=      5-min Rain = 0
KVA1 160820Z 22010KT 23/M01 A2994 RMK A01 T02301009  RH  020%=      5-min Rain = 0
KVA1 160821Z 22010KT 23/M01 A2994 RMK A01 T02301009  RH  020%=      5-min Rain = 0
KVA1 160822Z 21009KT 23/M01 A2994 RMK A01 T02301010  RH  020%=      5-min Rain = 0
KVA1 160823Z 21010KT 23/M01 A2994 RMK A01 T02301010  RH  020%=      5-min Rain = 0
KVA1 160824Z 22010KT 23/M01 A2994 RMK A01 T02301011  RH  020%=      5-min Rain = 0
KVA1 160825Z 22009KT 23/M01 A2994 RMK A01 T02301011  RH  020%=      5-min Rain = 0
KVA1 160826Z 22009KT 23/M01 A2994 RMK A01 T02301011  RH  020%=      5-min Rain = 0
KVA1 160827Z 22009KT 23/M01 A2994 RMK A01 T02301011  RH  020%=      5-min Rain = 0
KVA1 160828Z 21009KT 23/M01 A2994 RMK A01 T02311011  RH  020%=      5-min Rain = 0
KVA1 160829Z 22008KT 23/M01 A2994 RMK A01 T02311011  RH  020%=      5-min Rain = 0
KVA1 160830Z 21009KT 23/M01 A2994 RMK A01 T02311011  RH  020%=      5-min Rain = 0
KVA1 160831Z 22010KT 23/M01 A2994 RMK A01 T02311011  RH  020%=      5-min Rain = 0
KVA1 160832Z 21011KT 23/M01 A2994 RMK A01 T02301011  RH  020%=      5-min Rain = 0
KVA1 160833Z 21010KT 23/M01 A2994 RMK A01 T02311011  RH  020%=      5-min Rain = 0
KVA1 160834Z 22010KT 23/M01 A2994 RMK A01 T02301010  RH  020%=      5-min Rain = 0
KVA1 160835Z 22009KT 23/M01 A2994 RMK A01 T02291010  RH  020%=      5-min Rain = 0
KVA1 160836Z 22009KT 23/M01 A2994 RMK A01 T02291010  RH  020%=      5-min Rain = 0
KVA1 160837Z 21009KT 23/M01 A2994 RMK A01 T02291009  RH  021%=      5-min Rain = 0
KVA1 160838Z 21010KT 23/M01 A2994 RMK A01 T02281008  RH  021%=      5-min Rain = 0
KVA1 160839Z 21010KT 23/M01 A2994 RMK A01 T02281007  RH  021%=      5-min Rain = 0
KVA1 160840Z 22009KT 23/M01 A2994 RMK A01 T02271006  RH  021%=      5-min Rain = 0
KVA1 160841Z 21009KT 23/M01 A2994 RMK A01 T02251006  RH  021%=      5-min Rain = 0
KVA1 160842Z 22010KT 22/M01 A2994 RMK A01 T02241006  RH  022%=      5-min Rain = 0
KVA1 160843Z 22009KT 22/M01 A2994 RMK A01 T02231006  RH  022%=      5-min Rain = 0
KVA1 160844Z 22009KT 22/M01 A2994 RMK A01 T02231005  RH  022%=      5-min Rain = 0
KVA1 160845Z 21009KT 22/M01 A2994 RMK A01 T02221005  RH  022%=      5-min Rain = 0
KVA1 160846Z 22008KT 22/M01 A2994 RMK A01 T02221005  RH  022%=      5-min Rain = 0
KVA1 160847Z 21009KT 22/M01 A2994 RMK A01 T02211005  RH  022%=      5-min Rain = 0
KVA1 160848Z 22008KT 22/M01 A2994 RMK A01 T02211005  RH  022%=      5-min Rain = 0
KVA1 160849Z 22009KT 22/M01 A2994 RMK A01 T02201005  RH  022%=      5-min Rain = 0
KVA1 160850Z 22009KT 22/M01 A2994 RMK A01 T02191006  RH  022%=      5-min Rain = 0
KVA1 160851Z 22009KT 22/M01 A2994 RMK A01 T02191006  RH  022%=      5-min Rain = 0
KVA1 160852Z 22010KT 22/M01 A2994 RMK A01 T02191005  RH  022%=      5-min Rain = 0
KVA1 160853Z 22009KT 22/M01 A2994 RMK A01 T02181005  RH  022%=      5-min Rain = 0
KVA1 160854Z 21011KT 22/M01 A2994 RMK A01 T02181005  RH  023%=      5-min Rain = 0
KVA1 160855Z 22010KT 22/M01 A2994 RMK A01 T02181005  RH  023%=      5-min Rain = 0
KVA1 160856Z 21009KT 22/M01 A2994 RMK A01 T02181005  RH  023%=      5-min Rain = 0
KVA1 160857Z 22009KT 22/M01 A2994 RMK A01 T02181005  RH  023%=      5-min Rain = 0
KVA1 160858Z 22010KT 22/M01 A2994 RMK A01 T02191005  RH  022%=      5-min Rain = 0
KVA1 160859Z 22009KT 22/M00 A2994 RMK A01 T02191004  RH  023%=      5-min Rain = 0
KVA1 160900Z 22010KT 22/M00 A2994 RMK A01 T02181004  RH  023%=      5-min Rain = 0
KVA1 160901Z 22010KT 22/M00 A2994 RMK A01 T02181004  RH  023%=      5-min Rain = 0
KVA1 160902Z 21010KT 22/M00 A2994 RMK A01 T02181003  RH  023%=      5-min Rain = 0
KVA1 160903Z 22010KT 22/M00 A2994 RMK A01 T02171002  RH  023%=      5-min Rain = 0
KVA1 160904Z 21010KT 22/M00 A2994 RMK A01 T02171001  RH  023%=      5-min Rain = 0
KVA1 160905Z 21010KT 22/00 A2994 RMK A01 T021600-0  RH  024%=      5-min Rain = 0
KVA1 160906Z 22010KT 22/00 A2994 RMK A01 T02160001  RH  024%=      5-min Rain = 0
KVA1 160907Z 23008KT 22/00 A2994 RMK A01 T02160002  RH  024%=      5-min Rain = 0
KVA1 160908Z 22008KT 22/00 A2994 RMK A01 T02160001  RH  024%=      5-min Rain = 0
KVA1 160909Z 22010KT 22/00 A2994 RMK A01 T02160001  RH  024%=      5-min Rain = 0
KVA1 160910Z 22010KT 22/00 A2994 RMK A01 T02190001  RH  024%=      5-min Rain = 0
KVA1 160911Z 22011KT 22/00 A2994 RMK A01 T02200001  RH  023%=      5-min Rain = 0
KVA1 160912Z 23010KT 22/00 A2994 RMK A01 T02230002  RH  023%=      5-min Rain = 0
KVA1 160913Z 22012KT 22/00 A2994 RMK A01 T02240001  RH  023%=      5-min Rain = 0
KVA1 160914Z 22010KT 23/00 A2994 RMK A01 T02260002  RH  023%=      5-min Rain = 0
KVA1 160915Z 22009KT 23/00 A2994 RMK A01 T02260003  RH  023%=      5-min Rain = 0
KVA1 160916Z 22009KT 22/00 A2994 RMK A01 T02240003  RH  023%=      5-min Rain = 0
KVA1 160917Z 22010KT 22/00 A2994 RMK A01 T02230002  RH  023%=      5-min Rain = 0
KVA1 160918Z 22009KT 22/00 A2994 RMK A01 T02240002  RH  023%=      5-min Rain = 0
KVA1 160919Z 22009KT 22/00 A2994 RMK A01 T02240002  RH  023%=      5-min Rain = 0
KVA1 160920Z 22009KT 22/00 A2994 RMK A01 T02240003  RH  023%=      5-min Rain = 0
KVA1 160921Z 22009KT 22/00 A2994 RMK A01 T02230003  RH  023%=      5-min Rain = 0
KVA1 160922Z 22009KT 22/00 A2994 RMK A01 T02230002  RH  023%=      5-min Rain = 0
KVA1 160923Z 22009KT 22/00 A2994 RMK A01 T02230002  RH  023%=      5-min Rain = 0
KVA1 160924Z 22011KT 22/00 A2994 RMK A01 T02240002  RH  023%=      5-min Rain = 0
KVA1 160925Z 22009KT 23/00 A2994 RMK A01 T02250002  RH  023%=      5-min Rain = 0
KVA1 160926Z 22009KT 23/00 A2994 RMK A01 T02250003  RH  023%=      5-min Rain = 0
KVA1 160927Z 22009KT 22/00 A2994 RMK A01 T02240003  RH  023%=      5-min Rain = 0
KVA1 160928Z 22009KT 22/00 A2994 RMK A01 T02230004  RH  023%=      5-min Rain = 0
KVA1 160929Z 22009KT 22/01 A2994 RMK A01 T02220005  RH  024%=      5-min Rain = 0
KVA1 160930Z 21009KT 22/01 A2994 RMK A01 T02200005  RH  024%=      5-min Rain = 0
KVA1 160931Z 22009KT 22/01 A2994 RMK A01 T02190005  RH  024%=      5-min Rain = 0
KVA1 160932Z 23009KT 22/00 A2994 RMK A01 T02190004  RH  024%=      5-min Rain = 0
KVA1 160933Z 23009KT 22/01 A2994 RMK A01 T02200005  RH  024%=      5-min Rain = 0
KVA1 160934Z 23009KT 22/00 A2994 RMK A01 T02200004  RH  024%=      5-min Rain = 0
KVA1 160935Z 23007KT 22/00 A2994 RMK A01 T02210004  RH  024%=      5-min Rain = 0
KVA1 160936Z 23009KT 22/00 A2994 RMK A01 T02210003  RH  023%=      5-min Rain = 0
KVA1 160937Z 23008KT 22/00 A2994 RMK A01 T02220002  RH  023%=      5-min Rain = 0
KVA1 160938Z 23008KT 22/00 A2994 RMK A01 T02230003  RH  023%=      5-min Rain = 0
KVA1 160939Z 23009KT 22/00 A2994 RMK A01 T02230002  RH  023%=      5-min Rain = 0
KVA1 160940Z 23009KT 22/00 A2994 RMK A01 T02230003  RH  023%=      5-min Rain = 0
KVA1 160941Z 23008KT 22/00 A2994 RMK A01 T02230003  RH  023%=      5-min Rain = 0
KVA1 160942Z 23008KT 22/00 A2994 RMK A01 T02210004  RH  024%=      5-min Rain = 0
KVA1 160943Z 22009KT 22/00 A2994 RMK A01 T02200004  RH  024%=      5-min Rain = 0
KVA1 160944Z 23009KT 22/00 A2994 RMK A01 T02200004  RH  024%=      5-min Rain = 0
KVA1 160945Z 23009KT 22/00 A2994 RMK A01 T02210003  RH  024%=      5-min Rain = 0
KVA1 160946Z 22009KT 22/00 A2994 RMK A01 T02210004  RH  024%=      5-min Rain = 0
KVA1 160947Z 23009KT 22/00 A2994 RMK A01 T02210004  RH  024%=      5-min Rain = 0
KVA1 160948Z 23010KT 22/01 A2994 RMK A01 T02210005  RH  024%=      5-min Rain = 0
KVA1 160949Z 22010KT 22/01 A2994 RMK A01 T02200005  RH  024%=      5-min Rain = 0
KVA1 160950Z 22010KT 22/01 A2994 RMK A01 T02190005  RH  024%=      5-min Rain = 0
KVA1 160951Z 23011KT 22/01 A2994 RMK A01 T02190005  RH  024%=      5-min Rain = 0
KVA1 160952Z 23010KT 22/01 A2994 RMK A01 T02200005  RH  024%=      5-min Rain = 0
KVA1 160953Z 23009KT 22/01 A2994 RMK A01 T02210005  RH  024%=      5-min Rain = 0
KVA1 160954Z 23009KT 22/01 A2994 RMK A01 T02190005  RH  024%=      5-min Rain = 0
KVA1 160955Z 23009KT 22/01 A2994 RMK A01 T02190005  RH  024%=      5-min Rain = 0
KVA1 160956Z 23009KT 22/00 A2994 RMK A01 T02180004  RH  024%=      5-min Rain = 0
KVA1 160957Z 23010KT 22/00 A2994 RMK A01 T02190003  RH  024%=      5-min Rain = 0
KVA1 160958Z 23010KT 22/00 A2994 RMK A01 T02200003  RH  024%=      5-min Rain = 0
KVA1 160959Z 23009KT 22/00 A2994 RMK A01 T02200003  RH  024%=      5-min Rain = 0
KVA1 161000Z 23008KT 22/00 A2994 RMK A01 T02200002  RH  023%=      5-min Rain = 0
KVA1 161001Z 23008KT 22/00 A2994 RMK A01 T02210001  RH  023%=      5-min Rain = 0
KVA1 161002Z 24010KT 22/00 A2994 RMK A01 T02220001  RH  023%=      5-min Rain = 0
KVA1 161003Z 24009KT 22/00 A2994 RMK A01 T02240001  RH  023%=      5-min Rain = 0
KVA1 161004Z 23009KT 22/00 A2994 RMK A01 T02240000  RH  023%=      5-min Rain = 0
KVA1 161005Z 24009KT 22/00 A2994 RMK A01 T02240000  RH  023%=      5-min Rain = 0
KVA1 161006Z 24009KT 22/00 A2994 RMK A01 T02240001  RH  023%=      5-min Rain = 0
KVA1 161007Z 24008KT 22/00 A2994 RMK A01 T02240000  RH  023%=      5-min Rain = 0
KVA1 161008Z 24009KT 22/00 A2994 RMK A01 T022400-0  RH  023%=      5-min Rain = 0
KVA1 161009Z 24008KT 22/00 A2994 RMK A01 T022400-0  RH  022%=      5-min Rain = 0
KVA1 161010Z 23008KT 22/00 A2994 RMK A01 T022400-0  RH  023%=      5-min Rain = 0
KVA1 161011Z 24008KT 22/M00 A2994 RMK A01 T02241001  RH  023%=      5-min Rain = 0
KVA1 161012Z 23008KT 22/M00 A2994 RMK A01 T02241001  RH  022%=      5-min Rain = 0
KVA1 161013Z 24008KT 22/M00 A2994 RMK A01 T02241001  RH  022%=      5-min Rain = 0
KVA1 161014Z 24007KT 22/M00 A2994 RMK A01 T02241001  RH  022%=      5-min Rain = 0
KVA1 161015Z 24007KT 22/M00 A2994 RMK A01 T02241001  RH  022%=      5-min Rain = 0
KVA1 161016Z 24008KT 22/M00 A2994 RMK A01 T02231001  RH  022%=      5-min Rain = 0
KVA1 161017Z 24008KT 22/M00 A2994 RMK A01 T02231002  RH  022%=      5-min Rain = 0
KVA1 161018Z 24008KT 22/M00 A2994 RMK A01 T02231003  RH  022%=      5-min Rain = 0
KVA1 161019Z 24008KT 23/M00 A2994 RMK A01 T02251003  RH  022%=      5-min Rain = 0
KVA1 161020Z 24007KT 23/M00 A2994 RMK A01 T02251004  RH  022%=      5-min Rain = 0
KVA1 161021Z 24007KT 23/M00 A2994 RMK A01 T02261004  RH  022%=      5-min Rain = 0
KVA1 161022Z 24006KT 23/M00 A2994 RMK A01 T02251004  RH  022%=      5-min Rain = 0
KVA1 161023Z 24007KT 23/M00 A2994 RMK A01 T02251004  RH  022%=      5-min Rain = 0
KVA1 161024Z 24007KT 22/M00 A2994 RMK A01 T02241003  RH  022%=      5-min Rain = 0
KVA1 161025Z 24006KT 22/M00 A2994 RMK A01 T02231004  RH  022%=      5-min Rain = 0
KVA1 161026Z 24007KT 22/M00 A2994 RMK A01 T02231004  RH  022%=      5-min Rain = 0
KVA1 161027Z 23007KT 22/M00 A2994 RMK A01 T02221004  RH  022%=      5-min Rain = 0
KVA1 161028Z 24007KT 22/M00 A2994 RMK A01 T02221004  RH  022%=      5-min Rain = 0
KVA1 161029Z 24007KT 22/M00 A2994 RMK A01 T02211004  RH  022%=      5-min Rain = 0
KVA1 161030Z 24006KT 22/M00 A2994 RMK A01 T02211004  RH  022%=      5-min Rain = 0
KVA1 161031Z 24007KT 22/M00 A2994 RMK A01 T02211004  RH  022%=      5-min Rain = 0
KVA1 161032Z 24007KT 22/M00 A2994 RMK A01 T02201004  RH  022%=      5-min Rain = 0
KVA1 161033Z 25008KT 22/M01 A2994 RMK A01 T02211006  RH  022%=      5-min Rain = 0
KVA1 161034Z 25008KT 22/M01 A2994 RMK A01 T02231006  RH  022%=      5-min Rain = 0
KVA1 161035Z 25008KT 23/M01 A2994 RMK A01 T02251007  RH  021%=      5-min Rain = 0
KVA1 161036Z 25008KT 23/M01 A2994 RMK A01 T02281007  RH  021%=      5-min Rain = 0
KVA1 161037Z 25009KT 23/M01 A2994 RMK A01 T02301007  RH  021%=      5-min Rain = 0
KVA1 161038Z 24009KT 23/M01 A2994 RMK A01 T02321008  RH  020%=      5-min Rain = 0
KVA1 161039Z 25009KT 24/M01 A2994 RMK A01 T02351009  RH  020%=      5-min Rain = 0
KVA1 161040Z 25008KT 24/M01 A2994 RMK A01 T02381009  RH  019%=      5-min Rain = 0
KVA1 161041Z 25008KT 24/M01 A2994 RMK A01 T02401009  RH  019%=      5-min Rain = 0
KVA1 161042Z 25008KT 24/M01 A2994 RMK A01 T02411010  RH  019%=      5-min Rain = 0
KVA1 161043Z 25008KT 24/M01 A2994 RMK A01 T02421010  RH  019%=      5-min Rain = 0
KVA1 161044Z 25008KT 24/M01 A2994 RMK A01 T02421010  RH  019%=      5-min Rain = 0
KVA1 161045Z 25009KT 24/M01 A2993 RMK A01 T02421010  RH  019%=      5-min Rain = 0
KVA1 161046Z 25009KT 24/M01 A2994 RMK A01 T02421009  RH  019%=      5-min Rain = 0
KVA1 161047Z 26008KT 24/M01 A2994 RMK A01 T02421010  RH  019%=      5-min Rain = 0
KVA1 161048Z 25009KT 24/M01 A2994 RMK A01 T02421010  RH  019%=      5-min Rain = 0
KVA1 161049Z 26008KT 24/M01 A2994 RMK A01 T02431010  RH  019%=      5-min Rain = 0
KVA1 161050Z 26007KT 24/M01 A2994 RMK A01 T02431010  RH  019%=      5-min Rain = 0
KVA1 161051Z 27007KT 24/M01 A2994 RMK A01 T02431011  RH  019%=      5-min Rain = 0
KVA1 161052Z 26007KT 24/M01 A2994 RMK A01 T02431011  RH  019%=      5-min Rain = 0
KVA1 161053Z 26007KT 24/M01 A2994 RMK A01 T02431011  RH  019%=      5-min Rain = 0
KVA1 161054Z 26007KT 24/M01 A2994 RMK A01 T02431011  RH  019%=      5-min Rain = 0
KVA1 161055Z 27007KT 24/M01 A2994 RMK A01 T02431011  RH  019%=      5-min Rain = 0
KVA1 161056Z 27006KT 24/M01 A2994 RMK A01 T02441011  RH  019%=      5-min Rain = 0
KVA1 161057Z 27006KT 25/M01 A2994 RMK A01 T02451011  RH  018%=      5-min Rain = 0
KVA1 161058Z 27006KT 25/M01 A2994 RMK A01 T02451011  RH  018%=      5-min Rain = 0
KVA1 161059Z 26006KT 25/M01 A2994 RMK A01 T02451011  RH  018%=      5-min Rain = 0
KVA1 161100Z 26006KT 25/M01 A2994 RMK A01 T02461011  RH  018%=      5-min Rain = 0
KVA1 161101Z 26006KT 25/M01 A2994 RMK A01 T02461011  RH  018%=      5-min Rain = 0
KVA1 161102Z 28005KT 25/M01 A2994 RMK A01 T02461011  RH  018%=      5-min Rain = 0
KVA1 161103Z 00003KT 24/M01 A2994 RMK A01 T02431008  RH  019%=      5-min Rain = 0
KVA1 161104Z 34001KT 24/M01 A2994 RMK A01 T02391006  RH  020%=      5-min Rain = 0
KVA1 161105Z 26001KT 24/M01 A2994 RMK A01 T02351007  RH  020%=      5-min Rain = 0
KVA1 161106Z 09001KT 24/M01 A2994 RMK A01 T02351008  RH  020%=      5-min Rain = 0
KVA1 161107Z 11004KT 23/M00 A2994 RMK A01 T02341004  RH  021%=      5-min Rain = 0
KVA1 161108Z 11006KT 23/M00 A2994 RMK A01 T02301001  RH  022%=      5-min Rain = 0
KVA1 161109Z 12005KT 22/M00 A2994 RMK A01 T02241002  RH  022%=      5-min Rain = 0
KVA1 161110Z 11006KT 22/M00 A2994 RMK A01 T02211002  RH  023%=      5-min Rain = 0
KVA1 161111Z 13004KT 22/M00 A2994 RMK A01 T02201003  RH  023%=      5-min Rain = 0
KVA1 161112Z 13005KT 22/M00 A2995 RMK A01 T02201004  RH  023%=      5-min Rain = 0
KVA1 161113Z 14004KT 22/M00 A2995 RMK A01 T02201003  RH  023%=      5-min Rain = 0
KVA1 161114Z 14004KT 22/M00 A2995 RMK A01 T02201003  RH  023%=      5-min Rain = 0
KVA1 161115Z 12002KT 22/M00 A2995 RMK A01 T02191003  RH  023%=      5-min Rain = 0
KVA1 161116Z 14003KT 22/M00 A2995 RMK A01 T02201004  RH  022%=      5-min Rain = 0
KVA1 161117Z 15003KT 22/M00 A2995 RMK A01 T02201004  RH  022%=      5-min Rain = 0
KVA1 161118Z 15005KT 22/M01 A2995 RMK A01 T02191005  RH  022%=      5-min Rain = 0
KVA1 161119Z 17004KT 22/M00 A2995 RMK A01 T02201004  RH  022%=      5-min Rain = 0
KVA1 161120Z 16005KT 22/M00 A2995 RMK A01 T02191003  RH  023%=      5-min Rain = 0
KVA1 161121Z 15006KT 22/M00 A2995 RMK A01 T02191003  RH  023%=      5-min Rain = 0
KVA1 161122Z 15007KT 22/M00 A2995 RMK A01 T02171003  RH  023%=      5-min Rain = 0
KVA1 161123Z 15008KT 22/M00 A2995 RMK A01 T02161002  RH  023%=      5-min Rain = 0
KVA1 161124Z 15009KT 22/M00 A2995 RMK A01 T02151001  RH  024%=      5-min Rain = 0
KVA1 161125Z 15007KT 21/M00 A2995 RMK A01 T02141001  RH  024%=      5-min Rain = 0
KVA1 161126Z 15008KT 21/M00 A2995 RMK A01 T02141001  RH  024%=      5-min Rain = 0
KVA1 161127Z 15008KT 21/00 A2995 RMK A01 T021400-0  RH  024%=      5-min Rain = 0
KVA1 161128Z 15007KT 21/00 A2995 RMK A01 T02130001  RH  024%=      5-min Rain = 0
KVA1 161129Z 14008KT 21/00 A2995 RMK A01 T02110001  RH  025%=      5-min Rain = 0
KVA1 161130Z 14008KT 21/00 A2996 RMK A01 T02100000  RH  025%=      5-min Rain = 0
KVA1 161131Z 13008KT 21/00 A2996 RMK A01 T02090000  RH  025%=      5-min Rain = 0
KVA1 161132Z 13008KT 21/00 A2996 RMK A01 T02090001  RH  025%=      5-min Rain = 0
KVA1 161133Z 14008KT 21/00 A2996 RMK A01 T02120000  RH  024%=      5-min Rain = 0
KVA1 161134Z 16007KT 21/00 A2996 RMK A01 T02130001  RH  024%=      5-min Rain = 0
KVA1 161135Z 15010KT 21/00 A2996 RMK A01 T02130001  RH  024%=      5-min Rain = 0
KVA1 161136Z 16008KT 21/00 A2996 RMK A01 T02140001  RH  024%=      5-min Rain = 0
KVA1 161137Z 17008KT 21/00 A2996 RMK A01 T02140001  RH  024%=      5-min Rain = 0
KVA1 161138Z 17008KT 21/00 A2996 RMK A01 T02140001  RH  024%=      5-min Rain = 0
KVA1 161139Z 17006KT 21/00 A2996 RMK A01 T02140001  RH  024%=      5-min Rain = 0
KVA1 161140Z 17006KT 22/00 A2996 RMK A01 T02160001  RH  024%=      5-min Rain = 0
KVA1 161141Z 18006KT 22/00 A2996 RMK A01 T02160002  RH  024%=      5-min Rain = 0
KVA1 161142Z 16007KT 22/00 A2996 RMK A01 T02150002  RH  024%=      5-min Rain = 0
KVA1 161143Z 15008KT 22/00 A2996 RMK A01 T02150001  RH  024%=      5-min Rain = 0
KVA1 161144Z 15007KT 22/00 A2996 RMK A01 T02160000  RH  024%=      5-min Rain = 0
KVA1 161145Z 17003KT 22/M00 A2996 RMK A01 T02171001  RH  023%=      5-min Rain = 0
KVA1 161146Z 16002KT 22/M00 A2996 RMK A01 T02201003  RH  023%=      5-min Rain = 0
KVA1 161147Z 18004KT 22/M00 A2997 RMK A01 T02231002  RH  022%=      5-min Rain = 0
KVA1 161148Z 19005KT 22/00 A2997 RMK A01 T02230001  RH  023%=      5-min Rain = 0
KVA1 161149Z 20005KT 22/00 A2997 RMK A01 T02200001  RH  023%=      5-min Rain = 0
KVA1 161150Z 19005KT 22/00 A2997 RMK A01 T02180001  RH  024%=      5-min Rain = 0
KVA1 161151Z 18006KT 22/00 A2996 RMK A01 T02170001  RH  024%=      5-min Rain = 0
KVA1 161152Z 18007KT 22/00 A2996 RMK A01 T02150001  RH  024%=      5-min Rain = 0
KVA1 161153Z 16006KT 21/00 A2996 RMK A01 T021400-0  RH  024%=      5-min Rain = 0
KVA1 161154Z 15005KT 22/M00 A2996 RMK A01 T02151001  RH  024%=      5-min Rain = 0
KVA1 161155Z 19003KT 22/00 A2996 RMK A01 T021500-0  RH  024%=      5-min Rain = 0
KVA1 161156Z 22004KT 22/M00 A2997 RMK A01 T02151001  RH  024%=      5-min Rain = 0
KVA1 161157Z 24005KT 22/M00 A2997 RMK A01 T02161001  RH  024%=      5-min Rain = 0
KVA1 161158Z 24005KT 22/M00 A2997 RMK A01 T02151001  RH  024%=      5-min Rain = 0
KVA1 161159Z 24005KT 21/M00 A2997 RMK A01 T02141002  RH  024%=      5-min Rain = 0
KVA1 161200Z 21005KT 21/M00 A2997 RMK A01 T02131001  RH  024%=      5-min Rain = 0
KVA1 161201Z 18005KT 21/M00 A2996 RMK A01 T02131002  RH  024%=      5-min Rain = 0
KVA1 161202Z 17006KT 21/M00 A2996 RMK A01 T02121002  RH  024%=      5-min Rain = 0
KVA1 161203Z 16005KT 21/M00 A2997 RMK A01 T02121003  RH  024%=      5-min Rain = 0
KVA1 161204Z 15004KT 21/M00 A2997 RMK A01 T02141003  RH  024%=      5-min Rain = 0
KVA1 161205Z 16005KT 21/M00 A2997 RMK A01 T02141003  RH  023%=      5-min Rain = 0
KVA1 161206Z 19005KT 22/M01 A2997 RMK A01 T02171005  RH  023%=      5-min Rain = 0
KVA1 161207Z 21005KT 22/M00 A2997 RMK A01 T02191002  RH  023%=      5-min Rain = 0
KVA1 161208Z 20006KT 22/M00 A2997 RMK A01 T02181001  RH  023%=      5-min Rain = 0
KVA1 161209Z 20007KT 22/M00 A2997 RMK A01 T02171002  RH  023%=      5-min Rain = 0
KVA1 161210Z 21007KT 22/M00 A2997 RMK A01 T02171002  RH  023%=      5-min Rain = 0
KVA1 161211Z 22007KT 22/M00 A2997 RMK A01 T02171002  RH  023%=      5-min Rain = 0
KVA1 161212Z 21007KT 22/M00 A2997 RMK A01 T02171003  RH  023%=      5-min Rain = 0
KVA1 161213Z 21006KT 22/M00 A2997 RMK A01 T02171002  RH  023%=      5-min Rain = 0
KVA1 161214Z 21005KT 22/M00 A2997 RMK A01 T02161002  RH  023%=      5-min Rain = 0
KVA1 161215Z 22005KT 22/M00 A2998 RMK A01 T02161001  RH  023%=      5-min Rain = 0
KVA1 161216Z 23006KT 22/M00 A2998 RMK A01 T02161001  RH  024%=      5-min Rain = 0
KVA1 161217Z 23007KT 22/M00 A2998 RMK A01 T02171001  RH  023%=      5-min Rain = 0
KVA1 161218Z 22006KT 22/M00 A2998 RMK A01 T02181001  RH  023%=      5-min Rain = 0
KVA1 161219Z 22006KT 22/M00 A2998 RMK A01 T02201001  RH  023%=      5-min Rain = 0
KVA1 161220Z 22004KT 22/00 A2998 RMK A01 T022200-0  RH  023%=      5-min Rain = 0
KVA1 161221Z 24004KT 22/M00 A2998 RMK A01 T02231001  RH  023%=      5-min Rain = 0
KVA1 161222Z 23004KT 22/00 A2998 RMK A01 T022300-0  RH  023%=      5-min Rain = 0
KVA1 161223Z 22004KT 22/00 A2998 RMK A01 T02230001  RH  023%=      5-min Rain = 0
KVA1 161224Z 21005KT 22/00 A2998 RMK A01 T02230001  RH  023%=      5-min Rain = 0
KVA1 161225Z 21004KT 22/M00 A2998 RMK A01 T02231002  RH  022%=      5-min Rain = 0
KVA1 161226Z 21003KT 23/00 A2998 RMK A01 T02250000  RH  022%=      5-min Rain = 0
KVA1 161227Z 21002KT 23/00 A2998 RMK A01 T02250001  RH  023%=      5-min Rain = 0
KVA1 161228Z 23003KT 23/00 A2998 RMK A01 T02250002  RH  023%=      5-min Rain = 0
KVA1 161229Z 22004KT 23/00 A2998 RMK A01 T02250002  RH  023%=      5-min Rain = 0
KVA1 161230Z 21005KT 23/M00 A2998 RMK A01 T02251001  RH  022%=      5-min Rain = 0
KVA1 161231Z 22005KT 23/M00 A2998 RMK A01 T02271001  RH  022%=      5-min Rain = 0
KVA1 161232Z 23003KT 23/M00 A2998 RMK A01 T02291003  RH  021%=      5-min Rain = 0
KVA1 161233Z 23004KT 23/M01 A2998 RMK A01 T02321005  RH  021%=      5-min Rain = 0
KVA1 161234Z 23005KT 24/M01 A2998 RMK A01 T02361005  RH  020%=      5-min Rain = 0
KVA1 161235Z 23006KT 24/M00 A2998 RMK A01 T02381004  RH  020%=      5-min Rain = 0
KVA1 161236Z 21006KT 24/M01 A2998 RMK A01 T02391006  RH  020%=      5-min Rain = 0
KVA1 161237Z 22005KT 24/M01 A2998 RMK A01 T02411006  RH  020%=      5-min Rain = 0
KVA1 161238Z 21005KT 24/M01 A2998 RMK A01 T02421005  RH  019%=      5-min Rain = 0
KVA1 161239Z 21004KT 24/M01 A2998 RMK A01 T02431005  RH  019%=      5-min Rain = 0
KVA1 161240Z 22005KT 24/M00 A2998 RMK A01 T02431003  RH  020%=      5-min Rain = 0
KVA1 161241Z 22007KT 24/M00 A2998 RMK A01 T02431002  RH  020%=      5-min Rain = 0
KVA1 161242Z 23008KT 24/M00 A2998 RMK A01 T02421002  RH  020%=      5-min Rain = 0
KVA1 161243Z 22007KT 24/M00 A2998 RMK A01 T02411003  RH  020%=      5-min Rain = 0
KVA1 161244Z 22007KT 24/M00 A2998 RMK A01 T02421001  RH  020%=      5-min Rain = 0
KVA1 161245Z 22008KT 24/M00 A2998 RMK A01 T02411002  RH  020%=      5-min Rain = 0
KVA1 161246Z 22008KT 24/M00 A2998 RMK A01 T02411002  RH  020%=      5-min Rain = 0
KVA1 161247Z 21008KT 24/M00 A2998 RMK A01 T02421003  RH  020%=      5-min Rain = 0
KVA1 161248Z 22008KT 24/M00 A2998 RMK A01 T02431004  RH  020%=      5-min Rain = 0
KVA1 161249Z 22009KT 24/M00 A2998 RMK A01 T02441002  RH  020%=      5-min Rain = 0
KVA1 161250Z 22006KT 24/M01 A2998 RMK A01 T02441005  RH  019%=      5-min Rain = 0
KVA1 161251Z 23005KT 25/M01 A2998 RMK A01 T02451006  RH  019%=      5-min Rain = 0
KVA1 161252Z 26005KT 25/M00 A2998 RMK A01 T02471004  RH  019%=      5-min Rain = 0
KVA1 161253Z 24006KT 25/M00 A2998 RMK A01 T02471003  RH  019%=      5-min Rain = 0
KVA1 161254Z 23005KT 25/M01 A2998 RMK A01 T02471006  RH  019%=      5-min Rain = 0
KVA1 161255Z 24005KT 25/M01 A2998 RMK A01 T02481005  RH  019%=      5-min Rain = 0
KVA1 161256Z 24006KT 25/M01 A2998 RMK A01 T02481005  RH  019%=      5-min Rain = 0
KVA1 161257Z 23007KT 25/M01 A2998 RMK A01 T02491005  RH  019%=      5-min Rain = 0
KVA1 161258Z 23006KT 25/M01 A2998 RMK A01 T02491005  RH  019%=      5-min Rain = 0
KVA1 161259Z 23005KT 25/M00 A2998 RMK A01 T02501003  RH  019%=      5-min Rain = 0
KVA1 161300Z 23005KT 25/M00 A2998 RMK A01 T02501003  RH  019%=      5-min Rain = 0
KVA1 161301Z 23005KT 25/M00 A2998 RMK A01 T02511004  RH  019%=      5-min Rain = 0
KVA1 161302Z 23005KT 25/M01 A2998 RMK A01 T02511006  RH  018%=      5-min Rain = 0
KVA1 161303Z 22005KT 25/M00 A2998 RMK A01 T02521004  RH  019%=      5-min Rain = 0
KVA1 161304Z 22006KT 25/M00 A2998 RMK A01 T02521002  RH  019%=      5-min Rain = 0
KVA1 161305Z 23006KT 25/00 A2999 RMK A01 T02520001  RH  019%=      5-min Rain = 0
KVA1 161306Z 22007KT 25/00 A2999 RMK A01 T02500002  RH  020%=      5-min Rain = 0
KVA1 161307Z 21006KT 25/00 A2999 RMK A01 T02490003  RH  020%=      5-min Rain = 0
KVA1 161308Z 22006KT 25/01 A2999 RMK A01 T02470006  RH  020%=      5-min Rain = 0
KVA1 161309Z 23006KT 25/01 A2999 RMK A01 T02450006  RH  021%=      5-min Rain = 0
KVA1 161310Z 23006KT 24/01 A2999 RMK A01 T02440007  RH  021%=      5-min Rain = 0
KVA1 161311Z 23006KT 24/01 A2999 RMK A01 T02440008  RH  021%=      5-min Rain = 0
KVA1 161312Z 23006KT 24/01 A2999 RMK A01 T02440008  RH  021%=      5-min Rain = 0
KVA1 161313Z 23005KT 24/01 A2999 RMK A01 T02430009  RH  022%=      5-min Rain = 0
KVA1 161314Z 22005KT 24/01 A2999 RMK A01 T02420011  RH  022%=      5-min Rain = 0
KVA1 161315Z 20004KT 24/01 A2999 RMK A01 T02400013  RH  022%=      5-min Rain = 0
KVA1 161316Z 22006KT 24/01 A2999 RMK A01 T02390014  RH  023%=      5-min Rain = 0
KVA1 161317Z 24005KT 24/01 A2999 RMK A01 T02370014  RH  023%=      5-min Rain = 0
KVA1 161318Z 23005KT 24/02 A2999 RMK A01 T02360016  RH  024%=      5-min Rain = 0
KVA1 161319Z 22004KT 24/02 A2999 RMK A01 T02360018  RH  024%=      5-min Rain = 0
KVA1 161320Z 21005KT 24/02 A2999 RMK A01 T02360020  RH  024%=      5-min Rain = 0
KVA1 161321Z 23005KT 24/02 A2999 RMK A01 T02350020  RH  024%=      5-min Rain = 0
KVA1 161322Z 22005KT 24/02 A2999 RMK A01 T02350020  RH  024%=      5-min Rain = 0
KVA1 161323Z 22003KT 24/02 A2999 RMK A01 T02350021  RH  025%=      5-min Rain = 0
KVA1 161324Z 22003KT 24/02 A30 RMK A01 T02360022  RH  025%=      5-min Rain = 0
KVA1 161325Z 21005KT 24/02 A2999 RMK A01 T02360023  RH  025%=      5-min Rain = 0
KVA1 161326Z 19005KT 24/03 A2999 RMK A01 T02370025  RH  025%=      5-min Rain = 0
KVA1 161327Z 20003KT 24/03 A30 RMK A01 T02360026  RH  025%=      5-min Rain = 0
KVA1 161328Z 25002KT 24/03 A30 RMK A01 T02360027  RH  026%=      5-min Rain = 0
KVA1 161329Z 23002KT 24/03 A30 RMK A01 T02370027  RH  025%=      5-min Rain = 0
KVA1 161330Z 20001KT 24/03 A30 RMK A01 T02380027  RH  025%=      5-min Rain = 0
KVA1 161331Z 06001KT 24/03 A30 RMK A01 T02390027  RH  025%=      5-min Rain = 0
KVA1 161332Z 06004KT 24/03 A30 RMK A01 T02410028  RH  025%=      5-min Rain = 0
KVA1 161333Z 08004KT 24/03 A30 RMK A01 T02410033  RH  026%=      5-min Rain = 0
KVA1 161334Z 07004KT 24/03 A30 RMK A01 T02420031  RH  025%=      5-min Rain = 0
KVA1 161335Z 05003KT 24/03 A30 RMK A01 T02420030  RH  025%=      5-min Rain = 0
KVA1 161336Z 04003KT 24/03 A30 RMK A01 T02420025  RH  024%=      5-min Rain = 0
KVA1 161337Z 24000KT 24/02 A30 RMK A01 T02420022  RH  024%=      5-min Rain = 0
KVA1 161338Z 26004KT 24/02 A30 RMK A01 T02420015  RH  023%=      5-min Rain = 0
KVA1 161339Z 28003KT 24/01 A30 RMK A01 T02440008  RH  021%=      5-min Rain = 0
KVA1 161340Z 28003KT 25/01 A30 RMK A01 T02470010  RH  021%=      5-min Rain = 0
KVA1 161341Z 29003KT 25/01 A30 RMK A01 T02480013  RH  021%=      5-min Rain = 0
KVA1 161342Z 28003KT 25/02 A30 RMK A01 T02490016  RH  022%=      5-min Rain = 0
KVA1 161343Z 31002KT 25/02 A30 RMK A01 T02510017  RH  022%=      5-min Rain = 0
KVA1 161344Z 33002KT 25/02 A30 RMK A01 T02510016  RH  022%=      5-min Rain = 0
KVA1 161345Z 34000KT 25/02 A30 RMK A01 T02510017  RH  022%=      5-min Rain = 0
KVA1 161346Z 32002KT 25/01 A30 RMK A01 T02520014  RH  021%=      5-min Rain = 0
KVA1 161347Z 33002KT 25/01 A3001 RMK A01 T02520009  RH  020%=      5-min Rain = 0
KVA1 161348Z 35002KT 25/01 A3001 RMK A01 T02520011  RH  021%=      5-min Rain = 0
KVA1 161349Z 36003KT 25/01 A3001 RMK A01 T02530013  RH  021%=      5-min Rain = 0
KVA1 161350Z 01004KT 25/01 A3001 RMK A01 T02540013  RH  021%=      5-min Rain = 0
KVA1 161351Z 02004KT 25/01 A3001 RMK A01 T02540014  RH  021%=      5-min Rain = 0
KVA1 161352Z 03003KT 26/02 A3001 RMK A01 T02550020  RH  022%=      5-min Rain = 0
KVA1 161353Z 00003KT 26/02 A3001 RMK A01 T02560020  RH  022%=      5-min Rain = 0
KVA1 161354Z 01005KT 26/01 A3001 RMK A01 T02560007  RH  020%=      5-min Rain = 0
KVA1 161355Z 01004KT 26/00 A3001 RMK A01 T02560001  RH  019%=      5-min Rain = 0
KVA1 161356Z 02005KT 26/00 A3001 RMK A01 T02550000  RH  019%=      5-min Rain = 0
KVA1 161357Z 01006KT 26/00 A3001 RMK A01 T025500-0  RH  019%=      5-min Rain = 0
KVA1 161358Z 01005KT 25/M00 A3001 RMK A01 T02541002  RH  019%=      5-min Rain = 0
KVA1 161359Z 02004KT 25/M00 A3001 RMK A01 T02531001  RH  019%=      5-min Rain = 0
KVA1 161400Z 02004KT 25/M00 A3001 RMK A01 T02531001  RH  019%=      5-min Rain = 0
KVA1 161401Z 01005KT 25/M00 A3001 RMK A01 T02541001  RH  019%=      5-min Rain = 0
KVA1 161402Z 02005KT 25/M00 A3001 RMK A01 T02531003  RH  019%=      5-min Rain = 0
KVA1 161403Z 03004KT 25/M00 A3001 RMK A01 T02521002  RH  019%=      5-min Rain = 0
KVA1 161404Z 03003KT 25/M00 A3001 RMK A01 T02511002  RH  019%=      5-min Rain = 0
KVA1 161405Z 01004KT 25/M00 A3001 RMK A01 T02521001  RH  019%=      5-min Rain = 0
KVA1 161406Z 36005KT 25/M00 A3001 RMK A01 T02521003  RH  019%=      5-min Rain = 0
KVA1 161407Z 35005KT 25/M00 A3001 RMK A01 T02511003  RH  019%=      5-min Rain = 0
KVA1 161408Z 00004KT 25/M00 A3001 RMK A01 T02501003  RH  019%=      5-min Rain = 0
KVA1 161409Z 02006KT 25/00 A3001 RMK A01 T025000-0  RH  019%=      5-min Rain = 0
KVA1 161410Z 02005KT 25/M00 A3001 RMK A01 T02511001  RH  019%=      5-min Rain = 0
KVA1 161411Z 00004KT 25/M00 A3001 RMK A01 T02521002  RH  019%=      5-min Rain = 0
KVA1 161412Z 02003KT 25/M00 A3001 RMK A01 T02521001  RH  019%=      5-min Rain = 0
KVA1 161413Z 03004KT 25/M00 A3001 RMK A01 T02521001  RH  019%=      5-min Rain = 0
KVA1 161414Z 02005KT 25/00 A3001 RMK A01 T02520001  RH  019%=      5-min Rain = 0
KVA1 161415Z 02006KT 25/00 A3001 RMK A01 T02520001  RH  019%=      5-min Rain = 0
KVA1 161416Z 02006KT 25/00 A3001 RMK A01 T02520002  RH  019%=      5-min Rain = 0
KVA1 161417Z 02005KT 25/00 A3001 RMK A01 T02510004  RH  020%=      5-min Rain = 0
KVA1 161418Z 02005KT 25/00 A3001 RMK A01 T02520003  RH  020%=      5-min Rain = 0
KVA1 161419Z 04004KT 25/00 A3001 RMK A01 T02490002  RH  020%=      5-min Rain = 0
KVA1 161420Z 04005KT 25/00 A3001 RMK A01 T02490004  RH  020%=      5-min Rain = 0
KVA1 161421Z 02005KT 25/00 A3001 RMK A01 T02490002  RH  020%=      5-min Rain = 0
KVA1 161422Z 00005KT 25/01 A3001 RMK A01 T02500005  RH  020%=      5-min Rain = 0
KVA1 161423Z 02005KT 25/01 A3001 RMK A01 T02510008  RH  020%=      5-min Rain = 0
KVA1 161424Z 00004KT 25/01 A3001 RMK A01 T02520008  RH  020%=      5-min Rain = 0
KVA1 161425Z 00004KT 25/01 A3001 RMK A01 T02520008  RH  020%=      5-min Rain = 0
KVA1 161426Z 01004KT 25/01 A3002 RMK A01 T02520009  RH  020%=      5-min Rain = 0
KVA1 161427Z 01003KT 25/01 A3002 RMK A01 T02520009  RH  020%=      5-min Rain = 0
KVA1 161428Z 35002KT 25/01 A3002 RMK A01 T02520008  RH  020%=      5-min Rain = 0
KVA1 161429Z 00002KT 25/01 A3002 RMK A01 T02510007  RH  020%=      5-min Rain = 0
KVA1 161430Z 02003KT 25/01 A3002 RMK A01 T02510008  RH  020%=      5-min Rain = 0
KVA1 161431Z 04003KT 25/01 A3002 RMK A01 T02510009  RH  021%=      5-min Rain = 0
KVA1 161432Z 01003KT 25/01 A3002 RMK A01 T02520010  RH  020%=      5-min Rain = 0
KVA1 161433Z 03003KT 25/01 A3001 RMK A01 T02530011  RH  020%=      5-min Rain = 0
KVA1 161434Z 03002KT 26/01 A3001 RMK A01 T02550010  RH  020%=      5-min Rain = 0
KVA1 161435Z 03001KT 25/01 A3001 RMK A01 T02540011  RH  020%=      5-min Rain = 0
KVA1 161436Z 08002KT 25/01 A3001 RMK A01 T02540013  RH  021%=      5-min Rain = 0
KVA1 161437Z 08002KT 26/01 A3001 RMK A01 T02550009  RH  020%=      5-min Rain = 0
KVA1 161438Z 08002KT 26/01 A3001 RMK A01 T02550010  RH  020%=      5-min Rain = 0
KVA1 161439Z 08002KT 26/02 A3001 RMK A01 T02560016  RH  021%=      5-min Rain = 0
KVA1 161440Z 04002KT 26/01 A3001 RMK A01 T02570014  RH  020%=      5-min Rain = 0
KVA1 161441Z 36004KT 26/01 A3002 RMK A01 T02580013  RH  020%=      5-min Rain = 0
KVA1 161442Z 00003KT 26/01 A3002 RMK A01 T02570010  RH  020%=      5-min Rain = 0
KVA1 161443Z 03003KT 26/01 A3002 RMK A01 T02550010  RH  020%=      5-min Rain = 0
KVA1 161444Z 04003KT 26/01 A3002 RMK A01 T02560009  RH  020%=      5-min Rain = 0
KVA1 161445Z 04002KT 26/01 A3002 RMK A01 T02560007  RH  020%=      5-min Rain = 0
KVA1 161446Z 05002KT 26/01 A3002 RMK A01 T02570008  RH  020%=      5-min Rain = 0
KVA1 161447Z 03002KT 26/01 A3002 RMK A01 T02580009  RH  020%=      5-min Rain = 0
KVA1 161448Z 04003KT 26/01 A3002 RMK A01 T02580012  RH  020%=      5-min Rain = 0
KVA1 161449Z 04003KT 26/02 A3002 RMK A01 T02580016  RH  021%=      5-min Rain = 0
KVA1 161450Z 03001KT 26/02 A3002 RMK A01 T02580017  RH  021%=      5-min Rain = 0
KVA1 161451Z 07003KT 26/02 A3002 RMK A01 T02600016  RH  020%=      5-min Rain = 0
KVA1 161452Z 08002KT 26/02 A3001 RMK A01 T02600016  RH  020%=      5-min Rain = 0
KVA1 161453Z 06002KT 26/02 A3001 RMK A01 T02600018  RH  021%=      5-min Rain = 0
KVA1 161454Z 07002KT 26/02 A3001 RMK A01 T02600016  RH  020%=      5-min Rain = 0
KVA1 161455Z 08003KT 26/02 A3001 RMK A01 T02600016  RH  020%=      5-min Rain = 0
KVA1 161456Z 05003KT 26/01 A3001 RMK A01 T02600014  RH  020%=      5-min Rain = 0
KVA1 161457Z 02000KT 26/01 A3001 RMK A01 T02590013  RH  020%=      5-min Rain = 0
KVA1 161458Z 02001KT 26/01 A3001 RMK A01 T02590013  RH  020%=      5-min Rain = 0
KVA1 161459Z 05001KT 26/01 A3001 RMK A01 T02610013  RH  020%=      5-min Rain = 0
KVA1 161500Z 00000KT 26/01 A3001 RMK A01 T02630014  RH  020%=      5-min Rain = 0
KVA1 161501Z 04001KT 27/01 A3001 RMK A01 T02650014  RH  020%=      5-min Rain = 0
KVA1 161502Z 35002KT 27/01 A3001 RMK A01 T02670014  RH  019%=      5-min Rain = 0
KVA1 161503Z 33003KT 27/01 A3001 RMK A01 T02680014  RH  019%=      5-min Rain = 0
KVA1 161504Z 30003KT 27/02 A3001 RMK A01 T02680015  RH  019%=      5-min Rain = 0
KVA1 161505Z 29002KT 27/01 A3001 RMK A01 T02670013  RH  019%=      5-min Rain = 0
KVA1 161506Z 28000KT 27/01 A3001 RMK A01 T02650011  RH  019%=      5-min Rain = 0
KVA1 161507Z 31000KT 26/01 A3001 RMK A01 T02640011  RH  019%=      5-min Rain = 0
KVA1 161508Z 18000KT 27/01 A3001 RMK A01 T02650011  RH  019%=      5-min Rain = 0
KVA1 161509Z 15001KT 27/01 A3001 RMK A01 T02660010  RH  019%=      5-min Rain = 0
KVA1 161510Z 17002KT 27/01 A3001 RMK A01 T02680012  RH  019%=      5-min Rain = 0
KVA1 161511Z 17002KT 27/01 A3001 RMK A01 T02690013  RH  019%=      5-min Rain = 0
KVA1 161512Z 16001KT 27/01 A3001 RMK A01 T02680011  RH  019%=      5-min Rain = 0
KVA1 161513Z 13000KT 27/01 A3001 RMK A01 T02690012  RH  019%=      5-min Rain = 0
KVA1 161514Z 09001KT 27/01 A3001 RMK A01 T02730014  RH  019%=      5-min Rain = 0
KVA1 161515Z 15000KT 28/01 A3001 RMK A01 T02760012  RH  018%=      5-min Rain = 0
KVA1 161516Z 16001KT 28/01 A3001 RMK A01 T02770012  RH  018%=      5-min Rain = 0
KVA1 161517Z 12002KT 28/02 A3001 RMK A01 T02790015  RH  018%=      5-min Rain = 0
KVA1 161518Z 16001KT 28/01 A3001 RMK A01 T02810012  RH  018%=      5-min Rain = 0
KVA1 161519Z 28002KT 28/01 A30 RMK A01 T02820010  RH  017%=      5-min Rain = 0
KVA1 161520Z 23002KT 28/01 A30 RMK A01 T02820012  RH  017%=      5-min Rain = 0
KVA1 161521Z 31002KT 28/01 A30 RMK A01 T02830009  RH  017%=      5-min Rain = 0
KVA1 161522Z 23002KT 28/01 A30 RMK A01 T02840009  RH  017%=      5-min Rain = 0
KVA1 161523Z 24004KT 29/01 A30 RMK A01 T02870008  RH  016%=      5-min Rain = 0
KVA1 161524Z 25006KT 29/M00 A30 RMK A01 T02891002  RH  015%=      5-min Rain = 0
KVA1 161525Z 23006KT 29/M00 A30 RMK A01 T02911002  RH  015%=      5-min Rain = 0
KVA1 161526Z 26005KT 29/M00 A30 RMK A01 T02921001  RH  015%=      5-min Rain = 0
KVA1 161527Z 29003KT 29/M00 A30 RMK A01 T02941004  RH  014%=      5-min Rain = 0
KVA1 161528Z 31002KT 29/M00 A30 RMK A01 T02941004  RH  015%=      5-min Rain = 0
KVA1 161529Z 30002KT 30/M00 A30 RMK A01 T02961004  RH  014%=      5-min Rain = 0
KVA1 161530Z 28003KT 30/M00 A30 RMK A01 T02991002  RH  014%=      5-min Rain = 0
KVA1 161531Z 26004KT 30/M00 A30 RMK A01 T02991002  RH  014%=      5-min Rain = 0
KVA1 161532Z 28007KT 30/00 A30 RMK A01 T03000003  RH  015%=      5-min Rain = 0
KVA1 161533Z 29006KT 30/00 A30 RMK A01 T03010001  RH  014%=      5-min Rain = 0
KVA1 161534Z 27004KT 30/01 A30 RMK A01 T03020005  RH  015%=      5-min Rain = 0
KVA1 161535Z 24003KT 30/00 A30 RMK A01 T030100-0  RH  014%=      5-min Rain = 0
KVA1 161536Z 30008G13KT 30/M01 A2999 RMK A01 T03011005  RH  014%=      5-min Rain = 0
KVA1 161537Z 35007G13KT 30/00 A30 RMK A01 T03010003  RH  015%=      5-min Rain = 0
KVA1 161538Z 33002KT 30/00 A30 RMK A01 T02980003  RH  015%=      5-min Rain = 0
KVA1 161539Z 30004KT 30/00 A30 RMK A01 T02960004  RH  015%=      5-min Rain = 0
KVA1 161540Z 30009KT 30/M00 A30 RMK A01 T02961002  RH  015%=      5-min Rain = 0
KVA1 161541Z 28008KT 30/M01 A30 RMK A01 T02971014  RH  013%=      5-min Rain = 0
KVA1 161542Z 27007KT 30/M01 A30 RMK A01 T02971014  RH  013%=      5-min Rain = 0
KVA1 161543Z 29007KT 30/M01 A30 RMK A01 T02971011  RH  014%=      5-min Rain = 0
KVA1 161544Z 31011KT 30/M01 A30 RMK A01 T03021008  RH  013%=      5-min Rain = 0
KVA1 161545Z 30009KT 30/M01 A30 RMK A01 T03041009  RH  013%=      5-min Rain = 0
KVA1 161546Z 30008KT 30/M01 A30 RMK A01 T03041011  RH  013%=      5-min Rain = 0
KVA1 161547Z 33005KT 30/M00 A30 RMK A01 T03031003  RH  014%=      5-min Rain = 0
KVA1 161548Z 09001KT 30/01 A2999 RMK A01 T03020011  RH  015%=      5-min Rain = 0
KVA1 161549Z 03003KT 30/02 A2999 RMK A01 T02990016  RH  016%=      5-min Rain = 0
KVA1 161550Z 32002KT 30/02 A30 RMK A01 T02970017  RH  017%=      5-min Rain = 0
KVA1 161551Z 25006G16KT 30/01 A2999 RMK A01 T02960011  RH  016%=      5-min Rain = 0
KVA1 161552Z 31013G18KT 30/00 A2999 RMK A01 T02960002  RH  015%=      5-min Rain = 0
KVA1 161553Z 32008KT 30/00 A30 RMK A01 T02990004  RH  015%=      5-min Rain = 0
KVA1 161554Z 28005KT 30/M00 A30 RMK A01 T03031003  RH  014%=      5-min Rain = 0
KVA1 161555Z 26008KT 31/M01 A2999 RMK A01 T03061005  RH  013%=      5-min Rain = 0
KVA1 161556Z 28008G14KT 31/M01 A2999 RMK A01 T03091005  RH  013%=      5-min Rain = 0
KVA1 161557Z 28010KT 31/M01 A2999 RMK A01 T03101008  RH  013%=      5-min Rain = 0
KVA1 161558Z 28008KT 31/M01 A2999 RMK A01 T03071010  RH  013%=      5-min Rain = 0
KVA1 161559Z 29009KT 31/M01 A2999 RMK A01 T03051008  RH  013%=      5-min Rain = 0
KVA1 161600Z 29008KT 31/M01 A2999 RMK A01 T03051008  RH  013%=      5-min Rain = 0
KVA1 161601Z 26006KT 31/M01 A2999 RMK A01 T03061009  RH  013%=      5-min Rain = 0
KVA1 161602Z 29008KT 31/M01 A2999 RMK A01 T03061006  RH  013%=      5-min Rain = 0
KVA1 161603Z 25007KT 31/M01 A2999 RMK A01 T03081006  RH  013%=      5-min Rain = 0
KVA1 161604Z 26012KT 31/M01 A2999 RMK A01 T03101006  RH  013%=      5-min Rain = 0
KVA1 161605Z 26012KT 31/M01 A2999 RMK A01 T03101011  RH  013%=      5-min Rain = 0
KVA1 161606Z 26011KT 31/M01 A2999 RMK A01 T03071009  RH  013%=      5-min Rain = 0
KVA1 161607Z 27011KT 31/M01 A2999 RMK A01 T03081008  RH  013%=      5-min Rain = 0
KVA1 161608Z 26012KT 31/M01 A2999 RMK A01 T03071007  RH  013%=      5-min Rain = 0
KVA1 161609Z 28010KT 31/M01 A2999 RMK A01 T03071007  RH  013%=      5-min Rain = 0
KVA1 161610Z 28010KT 31/M01 A30 RMK A01 T03071008  RH  013%=      5-min Rain = 0
KVA1 161611Z 27007KT 31/M01 A30 RMK A01 T03061007  RH  013%=      5-min Rain = 0
KVA1 161612Z 26006KT 31/M01 A2999 RMK A01 T03051009  RH  013%=      5-min Rain = 0
KVA1 161613Z 26008KT 30/M01 A2999 RMK A01 T03041010  RH  013%=      5-min Rain = 0
KVA1 161614Z 28005KT 30/M01 A2999 RMK A01 T03031010  RH  013%=      5-min Rain = 0
KVA1 161615Z 27010G16KT 30/M01 A2999 RMK A01 T03031007  RH  013%=      5-min Rain = 0
KVA1 161616Z 27009KT 31/M01 A2999 RMK A01 T03061005  RH  013%=      5-min Rain = 0
KVA1 161617Z 26010KT 31/M00 A2999 RMK A01 T03091004  RH  013%=      5-min Rain = 0
KVA1 161618Z 27011KT 31/M00 A2999 RMK A01 T03101004  RH  013%=      5-min Rain = 0
KVA1 161619Z 26010KT 31/M01 A2999 RMK A01 T03111005  RH  013%=      5-min Rain = 0
KVA1 161620Z 26008KT 31/M01 A2999 RMK A01 T03101005  RH  013%=      5-min Rain = 0
KVA1 161621Z 25009KT 31/M01 A2999 RMK A01 T03101006  RH  013%=      5-min Rain = 0
KVA1 161622Z 26008KT 31/M01 A2999 RMK A01 T03101005  RH  013%=      5-min Rain = 0
KVA1 161623Z 29014KT 31/M00 A2999 RMK A01 T03101003  RH  013%=      5-min Rain = 0
KVA1 161624Z 28010KT 31/M01 A30 RMK A01 T03101005  RH  013%=      5-min Rain = 0
KVA1 161625Z 27008KT 31/M01 A30 RMK A01 T03081007  RH  013%=      5-min Rain = 0
KVA1 161626Z 27008KT 31/M01 A30 RMK A01 T03071006  RH  013%=      5-min Rain = 0
KVA1 161627Z 28006KT 31/M00 A30 RMK A01 T03091001  RH  014%=      5-min Rain = 0
KVA1 161628Z 26009KT 31/M00 A30 RMK A01 T03121001  RH  013%=      5-min Rain = 0
KVA1 161629Z 28009KT 31/M00 A30 RMK A01 T03131003  RH  013%=      5-min Rain = 0
KVA1 161630Z 30008KT 31/M00 A30 RMK A01 T03141004  RH  013%=      5-min Rain = 0
KVA1 161631Z 30009KT 31/M00 A2999 RMK A01 T03131004  RH  013%=      5-min Rain = 0
KVA1 161632Z 28010KT 31/M00 A2999 RMK A01 T03121003  RH  013%=      5-min Rain = 0
KVA1 161633Z 29007KT 31/M00 A30 RMK A01 T03131003  RH  013%=      5-min Rain = 0
KVA1 161634Z 30006KT 31/M01 A30 RMK A01 T03121005  RH  013%=      5-min Rain = 0
KVA1 161635Z 31003KT 31/M00 A2999 RMK A01 T03111004  RH  013%=      5-min Rain = 0
KVA1 161636Z 30003KT 31/M00 A2999 RMK A01 T03121004  RH  013%=      5-min Rain = 0
KVA1 161637Z 26004KT 31/M00 A2999 RMK A01 T03131002  RH  013%=      5-min Rain = 0
KVA1 161638Z 27006KT 31/00 A2999 RMK A01 T031400-0  RH  013%=      5-min Rain = 0
KVA1 161639Z 25011KT 32/M00 A2999 RMK A01 T03161001  RH  013%=      5-min Rain = 0
KVA1 161640Z 25010KT 32/M00 A2999 RMK A01 T03181002  RH  013%=      5-min Rain = 0
KVA1 161641Z 26011KT 32/M00 A2999 RMK A01 T03171004  RH  013%=      5-min Rain = 0
KVA1 161642Z 28010KT 32/M00 A2999 RMK A01 T03161003  RH  013%=      5-min Rain = 0
KVA1 161643Z 27009G14KT 31/M00 A2999 RMK A01 T03131004  RH  013%=      5-min Rain = 0
KVA1 161644Z 27012KT 31/M00 A2999 RMK A01 T03111002  RH  013%=      5-min Rain = 0
KVA1 161645Z 27009KT 31/M01 A2999 RMK A01 T03131005  RH  013%=      5-min Rain = 0
KVA1 161646Z 27005KT 31/M01 A2999 RMK A01 T03111008  RH  013%=      5-min Rain = 0
KVA1 161647Z 26006KT 31/M01 A2999 RMK A01 T03081007  RH  013%=      5-min Rain = 0
KVA1 161648Z 26007KT 31/M00 A2999 RMK A01 T03111004  RH  013%=      5-min Rain = 0
KVA1 161649Z 28007KT 31/M00 A2999 RMK A01 T03111004  RH  013%=      5-min Rain = 0
KVA1 161650Z 27006KT 31/M00 A2999 RMK A01 T03121003  RH  013%=      5-min Rain = 0
KVA1 161651Z 27007KT 31/M01 A2999 RMK A01 T03101005  RH  013%=      5-min Rain = 0
KVA1 161652Z 28009G15KT 31/M00 A2999 RMK A01 T03111001  RH  013%=      5-min Rain = 0
KVA1 161653Z 29012KT 32/M00 A2999 RMK A01 T03151001  RH  013%=      5-min Rain = 0
KVA1 161654Z 27012G17KT 31/M00 A2999 RMK A01 T03141003  RH  013%=      5-min Rain = 0
KVA1 161655Z 28006G11KT 31/M01 A2999 RMK A01 T03131006  RH  013%=      5-min Rain = 0
KVA1 161656Z 28011KT 31/M00 A2999 RMK A01 T03131001  RH  013%=      5-min Rain = 0
KVA1 161657Z 28009KT 32/M00 A2999 RMK A01 T03161003  RH  013%=      5-min Rain = 0
KVA1 161658Z 27008KT 31/M01 A2999 RMK A01 T03131006  RH  013%=      5-min Rain = 0
KVA1 161659Z 27005KT 31/M01 A2999 RMK A01 T03111006  RH  013%=      5-min Rain = 0
KVA1 161700Z 30007KT 31/M00 A2999 RMK A01 T03121002  RH  013%=      5-min Rain = 0
KVA1 161701Z 32006KT 32/M00 A2999 RMK A01 T03171001  RH  013%=      5-min Rain = 0
KVA1 161702Z 32009KT 32/M00 A2999 RMK A01 T03181002  RH  013%=      5-min Rain = 0
KVA1 161703Z 32009KT 32/M00 A2999 RMK A01 T03181002  RH  013%=      5-min Rain = 0
KVA1 161704Z 31008KT 32/M00 A2999 RMK A01 T03161003  RH  013%=      5-min Rain = 0
KVA1 161705Z 25008KT 32/M00 A2999 RMK A01 T03181001  RH  013%=      5-min Rain = 0
KVA1 161706Z 26006KT 32/M00 A2999 RMK A01 T03201004  RH  012%=      5-min Rain = 0
KVA1 161707Z 28007KT 32/M00 A2999 RMK A01 T03201003  RH  013%=      5-min Rain = 0
KVA1 161708Z 31011KT 32/00 A2999 RMK A01 T03220002  RH  013%=      5-min Rain = 0
KVA1 161709Z 32011KT 32/00 A2999 RMK A01 T03220003  RH  013%=      5-min Rain = 0
KVA1 161710Z 32010KT 32/00 A2999 RMK A01 T03210003  RH  013%=      5-min Rain = 0
KVA1 161711Z 32010KT 32/00 A2999 RMK A01 T03220000  RH  013%=      5-min Rain = 0
KVA1 161712Z 32011KT 32/00 A2999 RMK A01 T03240001  RH  013%=      5-min Rain = 0
KVA1 161713Z 32007KT 32/00 A2999 RMK A01 T03230002  RH  013%=      5-min Rain = 0
KVA1 161714Z 32009KT 32/00 A2999 RMK A01 T03220001  RH  013%=      5-min Rain = 0
KVA1 161715Z 33010KT 32/M00 A2998 RMK A01 T03201004  RH  013%=      5-min Rain = 0
KVA1 161716Z 33010KT 32/M00 A2998 RMK A01 T03211004  RH  012%=      5-min Rain = 0
KVA1 161717Z 33007KT 32/M01 A2998 RMK A01 T03231006  RH  012%=      5-min Rain = 0
KVA1 161718Z 32007KT 32/M01 A2998 RMK A01 T03231005  RH  012%=      5-min Rain = 0
KVA1 161719Z 30005KT 32/M00 A2999 RMK A01 T03231004  RH  012%=      5-min Rain = 0
KVA1 161720Z 28005KT 33/00 A2999 RMK A01 T03260000  RH  012%=      5-min Rain = 0
KVA1 161721Z 30007KT 33/00 A2998 RMK A01 T03290002  RH  012%=      5-min Rain = 0
KVA1 161722Z 29005G10KT 33/00 A2999 RMK A01 T03320001  RH  012%=      5-min Rain = 0
KVA1 161723Z 29005KT 33/M00 A2999 RMK A01 T03331001  RH  012%=      5-min Rain = 0
KVA1 161724Z 27006KT 33/M00 A2999 RMK A01 T03331002  RH  012%=      5-min Rain = 0
KVA1 161725Z 31006KT 33/M01 A2999 RMK A01 T03331009  RH  011%=      5-min Rain = 0
KVA1 161726Z 30007KT 33/M02 A2998 RMK A01 T03291015  RH  011%=      5-min Rain = 0
KVA1 161727Z 27010KT 33/M01 A2999 RMK A01 T03281012  RH  011%=      5-min Rain = 0
KVA1 161728Z 25006KT 33/M01 A2999 RMK A01 T03291013  RH  011%=      5-min Rain = 0
KVA1 161729Z 26006KT 33/M01 A2999 RMK A01 T03311013  RH  011%=      5-min Rain = 0
KVA1 161730Z 27010KT 33/M01 A2999 RMK A01 T03311011  RH  011%=      5-min Rain = 0
KVA1 161731Z 26007KT 33/M02 A2999 RMK A01 T03281016  RH  011%=      5-min Rain = 0
KVA1 161732Z 28006KT 33/M01 A2999 RMK A01 T03281013  RH  011%=      5-min Rain = 0
KVA1 161733Z 31007KT 33/M01 A2999 RMK A01 T03291011  RH  011%=      5-min Rain = 0
KVA1 161734Z 32004KT 33/M01 A2999 RMK A01 T03291013  RH  011%=      5-min Rain = 0
KVA1 161735Z 31007KT 33/M01 A2999 RMK A01 T03291011  RH  011%=      5-min Rain = 0
KVA1 161736Z 29005KT 33/M02 A2999 RMK A01 T03251015  RH  011%=      5-min Rain = 0
KVA1 161737Z 30005KT 32/M01 A2999 RMK A01 T03231012  RH  012%=      5-min Rain = 0
KVA1 161738Z 32008KT 33/M01 A2999 RMK A01 T03251009  RH  012%=      5-min Rain = 0
KVA1 161739Z 31010KT 33/M01 A2999 RMK A01 T03261010  RH  012%=      5-min Rain = 0
KVA1 161740Z 27007KT 33/M01 A2998 RMK A01 T03261011  RH  011%=      5-min Rain = 0
KVA1 161741Z 30005KT 33/M01 A2999 RMK A01 T03251012  RH  011%=      5-min Rain = 0
KVA1 161742Z 33006KT 33/M01 A2999 RMK A01 T03271009  RH  012%=      5-min Rain = 0
KVA1 161743Z 33005KT 33/M01 A2998 RMK A01 T03281011  RH  011%=      5-min Rain = 0
KVA1 161744Z 31008KT 33/M01 A2998 RMK A01 T03281011  RH  011%=      5-min Rain = 0
KVA1 161745Z 34010KT 33/M01 A2998 RMK A01 T03291009  RH  011%=      5-min Rain = 0
KVA1 161746Z 34007KT 33/M01 A2998 RMK A01 T03311010  RH  011%=      5-min Rain = 0
KVA1 161747Z 32004KT 33/M01 A2998 RMK A01 T03311011  RH  011%=      5-min Rain = 0
KVA1 161748Z 30007KT 33/M01 A2998 RMK A01 T03321008  RH  011%=      5-min Rain = 0
KVA1 161749Z 31010KT 33/M01 A2998 RMK A01 T03331006  RH  011%=      5-min Rain = 0
KVA1 161750Z 31009KT 33/M01 A2999 RMK A01 T03321008  RH  011%=      5-min Rain = 0
KVA1 161751Z 32006KT 33/M01 A2998 RMK A01 T03291012  RH  011%=      5-min Rain = 0
KVA1 161752Z 32006KT 33/M01 A2998 RMK A01 T03261012  RH  011%=      5-min Rain = 0
KVA1 161753Z 30005KT 33/M01 A2998 RMK A01 T03261010  RH  012%=      5-min Rain = 0
KVA1 161754Z 28004KT 33/M01 A2998 RMK A01 T03261009  RH  012%=      5-min Rain = 0
KVA1 161755Z 26003KT 33/M01 A2998 RMK A01 T03251009  RH  012%=      5-min Rain = 0
KVA1 161756Z 28005G12KT 33/M00 A2998 RMK A01 T03271003  RH  012%=      5-min Rain = 0
KVA1 161757Z 27008KT 33/M00 A2998 RMK A01 T03321002  RH  012%=      5-min Rain = 0
KVA1 161758Z 29008KT 33/M00 A2998 RMK A01 T03341003  RH  012%=      5-min Rain = 0
KVA1 161759Z 31006KT 33/M01 A2998 RMK A01 T03341005  RH  011%=      5-min Rain = 0
KVA1 161800Z 29005KT 33/M00 A2998 RMK A01 T03331004  RH  012%=      5-min Rain = 0
KVA1 161801Z 31004KT 33/M00 A2998 RMK A01 T03331004  RH  012%=      5-min Rain = 0
KVA1 161802Z 27004KT 33/M00 A2998 RMK A01 T03341003  RH  012%=      5-min Rain = 0
KVA1 161803Z 27004KT 34/M01 A2998 RMK A01 T03351005  RH  011%=      5-min Rain = 0
KVA1 161804Z 35005KT 33/M01 A2998 RMK A01 T03341006  RH  011%=      5-min Rain = 0
KVA1 161805Z 00004KT 33/M01 A2998 RMK A01 T03331009  RH  011%=      5-min Rain = 0
KVA1 161806Z 04004KT 33/M01 A2998 RMK A01 T03321008  RH  011%=      5-min Rain = 0
KVA1 161807Z 05001KT 33/M01 A2998 RMK A01 T03301009  RH  011%=      5-min Rain = 0
KVA1 161808Z 36000KT 33/M01 A2998 RMK A01 T03281008  RH  012%=      5-min Rain = 0
KVA1 161809Z 01001KT 33/M01 A2998 RMK A01 T03291007  RH  012%=      5-min Rain = 0
KVA1 161810Z 02004KT 33/M01 A2998 RMK A01 T03321006  RH  012%=      5-min Rain = 0
KVA1 161811Z 35002KT 33/M01 A2998 RMK A01 T03331006  RH  011%=      5-min Rain = 0
KVA1 161812Z 12002KT 34/M00 A2998 RMK A01 T03361004  RH  011%=      5-min Rain = 0
KVA1 161813Z 30002KT 34/M01 A2998 RMK A01 T03391005  RH  011%=      5-min Rain = 0
KVA1 161814Z 30002KT 34/M01 A2998 RMK A01 T03391006  RH  011%=      5-min Rain = 0
KVA1 161815Z 27004KT 34/M00 A2998 RMK A01 T03381004  RH  011%=      5-min Rain = 0
KVA1 161816Z 27005KT 34/M00 A2998 RMK A01 T03381001  RH  012%=      5-min Rain = 0
KVA1 161817Z 28005KT 34/M00 A2998 RMK A01 T03401003  RH  011%=      5-min Rain = 0
KVA1 161818Z 27008KT 34/M00 A2998 RMK A01 T03401003  RH  011%=      5-min Rain = 0
KVA1 161819Z 27005KT 34/M01 A2998 RMK A01 T03381007  RH  011%=      5-min Rain = 0
KVA1 161820Z 25002KT 33/M01 A2998 RMK A01 T03341009  RH  011%=      5-min Rain = 0
KVA1 161821Z 23004KT 33/M01 A2998 RMK A01 T03321010  RH  011%=      5-min Rain = 0
KVA1 161822Z 23002KT 33/M01 A2998 RMK A01 T03311008  RH  011%=      5-min Rain = 0
KVA1 161823Z 30002KT 33/M01 A2998 RMK A01 T03331008  RH  011%=      5-min Rain = 0
KVA1 161824Z 29005KT 33/M01 A2998 RMK A01 T03341009  RH  011%=      5-min Rain = 0
KVA1 161825Z 33011KT 34/M01 A2998 RMK A01 T03351009  RH  011%=      5-min Rain = 0
KVA1 161826Z 33008KT 34/M01 A2998 RMK A01 T03361011  RH  011%=      5-min Rain = 0
KVA1 161827Z 35008KT 34/M01 A2997 RMK A01 T03351011  RH  011%=      5-min Rain = 0
KVA1 161828Z 34009KT 34/M01 A2997 RMK A01 T03391009  RH  011%=      5-min Rain = 0
KVA1 161829Z 33006KT 34/M01 A2997 RMK A01 T03391011  RH  011%=      5-min Rain = 0
KVA1 161830Z 33007KT 34/M01 A2997 RMK A01 T03401009  RH  011%=      5-min Rain = 0
KVA1 161831Z 32010KT 34/M01 A2997 RMK A01 T03391010  RH  011%=      5-min Rain = 0
KVA1 161832Z 30010KT 34/M01 A2997 RMK A01 T03381010  RH  011%=      5-min Rain = 0
KVA1 161833Z 28009KT 34/M01 A2997 RMK A01 T03381007  RH  011%=      5-min Rain = 0
KVA1 161834Z 29009KT 34/M01 A2997 RMK A01 T03401008  RH  011%=      5-min Rain = 0
KVA1 161835Z 29010KT 34/M01 A2997 RMK A01 T03391010  RH  011%=      5-min Rain = 0
KVA1 161836Z 31011KT 34/M01 A2997 RMK A01 T03391009  RH  011%=      5-min Rain = 0
KVA1 161837Z 28009KT 34/M01 A2998 RMK A01 T03421008  RH  011%=      5-min Rain = 0
KVA1 161838Z 29005KT 34/M01 A2998 RMK A01 T03401012  RH  011%=      5-min Rain = 0
KVA1 161839Z 29006KT 34/M01 A2998 RMK A01 T03381011  RH  011%=      5-min Rain = 0
KVA1 161840Z 27006KT 34/M01 A2997 RMK A01 T03361013  RH  011%=      5-min Rain = 0
KVA1 161841Z 25006KT 34/M01 A2997 RMK A01 T03351011  RH  011%=      5-min Rain = 0
KVA1 161842Z 29005KT 34/M01 A2997 RMK A01 T03361010  RH  011%=      5-min Rain = 0
KVA1 161843Z 30008KT 34/M01 A2997 RMK A01 T03391009  RH  011%=      5-min Rain = 0
KVA1 161844Z 30009KT 34/M01 A2997 RMK A01 T03401010  RH  011%=      5-min Rain = 0
KVA1 161845Z 30008KT 34/M01 A2997 RMK A01 T03391010  RH  011%=      5-min Rain = 0
KVA1 161846Z 31007KT 34/M01 A2997 RMK A01 T03401010  RH  011%=      5-min Rain = 0
KVA1 161847Z 30006KT 34/M01 A2997 RMK A01 T03401012  RH  011%=      5-min Rain = 0
KVA1 161848Z 30007KT 34/M01 A2997 RMK A01 T03401010  RH  011%=      5-min Rain = 0
KVA1 161849Z 30004KT 34/M01 A2997 RMK A01 T03391009  RH  011%=      5-min Rain = 0
KVA1 161850Z 34004KT 34/M01 A2997 RMK A01 T03421008  RH  011%=      5-min Rain = 0
KVA1 161851Z 33004KT 34/M01 A2997 RMK A01 T03421012  RH  010%=      5-min Rain = 0
KVA1 161852Z 27006G11KT 34/M01 A2997 RMK A01 T03401009  RH  011%=      5-min Rain = 0
KVA1 161853Z 28010KT 35/M00 A2997 RMK A01 T03461004  RH  011%=      5-min Rain = 0
KVA1 161854Z 27009KT 35/M01 A2997 RMK A01 T03481009  RH  010%=      5-min Rain = 0
KVA1 161855Z 28004KT 34/M01 A2997 RMK A01 T03431011  RH  010%=      5-min Rain = 0
KVA1 161856Z 29004KT 34/M01 A2997 RMK A01 T03411012  RH  010%=      5-min Rain = 0
KVA1 161857Z 36006KT 34/M01 A2997 RMK A01 T03391013  RH  011%=      5-min Rain = 0
KVA1 161858Z 30004KT 34/M01 A2997 RMK A01 T03381012  RH  011%=      5-min Rain = 0
KVA1 161859Z 24003KT 34/M01 A2997 RMK A01 T03381011  RH  011%=      5-min Rain = 0
KVA1 161900Z 21004KT 34/M01 A2997 RMK A01 T03401012  RH  011%=      5-min Rain = 0
KVA1 161901Z 22003KT 34/M01 A2997 RMK A01 T03391012  RH  011%=      5-min Rain = 0
KVA1 161902Z 28009KT 34/M01 A2997 RMK A01 T03431008  RH  011%=      5-min Rain = 0
KVA1 161903Z 29011KT 35/M01 A2997 RMK A01 T03481008  RH  010%=      5-min Rain = 0
KVA1 161904Z 28009KT 35/M01 A2996 RMK A01 T03461011  RH  010%=      5-min Rain = 0
KVA1 161905Z 29011KT 35/M01 A2997 RMK A01 T03471008  RH  010%=      5-min Rain = 0
KVA1 161906Z 28011KT 35/M01 A2997 RMK A01 T03461013  RH  010%=      5-min Rain = 0
KVA1 161907Z 29009KT 34/M01 A2997 RMK A01 T03421013  RH  010%=      5-min Rain = 0
KVA1 161908Z 29007KT 35/M01 A2997 RMK A01 T03451011  RH  010%=      5-min Rain = 0
KVA1 161909Z 31007KT 35/M01 A2996 RMK A01 T03461013  RH  010%=      5-min Rain = 0
KVA1 161910Z 33008KT 35/M01 A2996 RMK A01 T03481013  RH  010%=      5-min Rain = 0
KVA1 161911Z 34007KT 35/M02 A2996 RMK A01 T03461016  RH  010%=      5-min Rain = 0
KVA1 161912Z 01006KT 34/M02 A2996 RMK A01 T03441017  RH  010%=      5-min Rain = 0
KVA1 161913Z 35003KT 34/M02 A2996 RMK A01 T03411017  RH  010%=      5-min Rain = 0
KVA1 161914Z 32004KT 34/M02 A2996 RMK A01 T03401017  RH  010%=      5-min Rain = 0
KVA1 161915Z 31003KT 34/M02 A2996 RMK A01 T03391017  RH  010%=      5-min Rain = 0
KVA1 161916Z 32007KT 34/M01 A2996 RMK A01 T03421010  RH  011%=      5-min Rain = 0
KVA1 161917Z 34005KT 35/M01 A2996 RMK A01 T03451012  RH  010%=      5-min Rain = 0
KVA1 161918Z 31005KT 34/M01 A2996 RMK A01 T03441012  RH  010%=      5-min Rain = 0
KVA1 161919Z 31004KT 35/M01 A2996 RMK A01 T03481006  RH  011%=      5-min Rain = 0
KVA1 161920Z 31006KT 35/M01 A2996 RMK A01 T03511011  RH  010%=      5-min Rain = 0
KVA1 161921Z 26007KT 35/M02 A2996 RMK A01 T03481016  RH  010%=      5-min Rain = 0
KVA1 161922Z 24006KT 35/M02 A2996 RMK A01 T03471021  RH  010%=      5-min Rain = 0
KVA1 161923Z 20002KT 35/M02 A2996 RMK A01 T03471022  RH  009%=      5-min Rain = 0
KVA1 161924Z 26003KT 35/M02 A2996 RMK A01 T03471021  RH  009%=      5-min Rain = 0
KVA1 161925Z 31004KT 35/M02 A2996 RMK A01 T03481015  RH  010%=      5-min Rain = 0
KVA1 161926Z 32006KT 35/M01 A2996 RMK A01 T03491010  RH  010%=      5-min Rain = 0
KVA1 161927Z 33005KT 35/M01 A2996 RMK A01 T03451013  RH  010%=      5-min Rain = 0
KVA1 161928Z 30009KT 34/M01 A2996 RMK A01 T03431013  RH  010%=      5-min Rain = 0
KVA1 161929Z 28012KT 35/M01 A2996 RMK A01 T03451013  RH  010%=      5-min Rain = 0
KVA1 161930Z 27010KT 35/M02 A2996 RMK A01 T03481017  RH  010%=      5-min Rain = 0
KVA1 161931Z 27009KT 35/M02 A2996 RMK A01 T03481016  RH  010%=      5-min Rain = 0
KVA1 161932Z 25005KT 35/M02 A2996 RMK A01 T03461020  RH  010%=      5-min Rain = 0
KVA1 161933Z 26005KT 34/M02 A2995 RMK A01 T03421021  RH  010%=      5-min Rain = 0
KVA1 161934Z 26007KT 34/M02 A2996 RMK A01 T03431016  RH  010%=      5-min Rain = 0
KVA1 161935Z 29011KT 34/M02 A2995 RMK A01 T03431017  RH  010%=      5-min Rain = 0
KVA1 161936Z 29009KT 35/M01 A2996 RMK A01 T03461013  RH  010%=      5-min Rain = 0
KVA1 161937Z 32006KT 35/M01 A2995 RMK A01 T03511011  RH  010%=      5-min Rain = 0
KVA1 161938Z 34007KT 36/M01 A2995 RMK A01 T03551013  RH  010%=      5-min Rain = 0
KVA1 161939Z 32004KT 36/M02 A2995 RMK A01 T03581015  RH  009%=      5-min Rain = 0
KVA1 161940Z 36004KT 36/M02 A2995 RMK A01 T03561017  RH  009%=      5-min Rain = 0
KVA1 161941Z 34006KT 36/M02 A2995 RMK A01 T03551017  RH  009%=      5-min Rain = 0
KVA1 161942Z 25008KT 36/M02 A2995 RMK A01 T03551017  RH  009%=      5-min Rain = 0
KVA1 161943Z 24006KT 35/M02 A2995 RMK A01 T03531020  RH  009%=      5-min Rain = 0
KVA1 161944Z 22004KT 35/M02 A2995 RMK A01 T03491021  RH  009%=      5-min Rain = 0
KVA1 161945Z 21003KT 35/M02 A2995 RMK A01 T03471018  RH  010%=      5-min Rain = 0
KVA1 161946Z 21004KT 35/M02 A2995 RMK A01 T03471019  RH  010%=      5-min Rain = 0
KVA1 161947Z 25003KT 35/M02 A2995 RMK A01 T03471018  RH  010%=      5-min Rain = 0
KVA1 161948Z 23003KT 35/M02 A2995 RMK A01 T03491020  RH  009%=      5-min Rain = 0
KVA1 161949Z 29006KT 35/M02 A2995 RMK A01 T03481020  RH  010%=      5-min Rain = 0
KVA1 161950Z 24006KT 35/M02 A2995 RMK A01 T03531022  RH  009%=      5-min Rain = 0
KVA1 161951Z 28008KT 35/M03 A2995 RMK A01 T03531025  RH  009%=      5-min Rain = 0
KVA1 161952Z 28008G13KT 35/M02 A2995 RMK A01 T03521022  RH  009%=      5-min Rain = 0
KVA1 161953Z 28009KT 36/M02 A2995 RMK A01 T03551020  RH  009%=      5-min Rain = 0
KVA1 161954Z 32009KT 35/M02 A2995 RMK A01 T03531024  RH  009%=      5-min Rain = 0
KVA1 161955Z 32008KT 35/M02 A2995 RMK A01 T03501023  RH  009%=      5-min Rain = 0
KVA1 161956Z 31012KT 35/M02 A2995 RMK A01 T03491023  RH  009%=      5-min Rain = 0
KVA1 161957Z 30011KT 35/M02 A2995 RMK A01 T03501022  RH  009%=      5-min Rain = 0
KVA1 161958Z 28004KT 35/M02 A2995 RMK A01 T03501024  RH  009%=      5-min Rain = 0
KVA1 161959Z 28001KT 35/M03 A2995 RMK A01 T03471027  RH  009%=      5-min Rain = 0
KVA1 162000Z 24001KT 35/M03 A2994 RMK A01 T03461025  RH  009%=      5-min Rain = 0
KVA1 162001Z 25003KT 35/M02 A2994 RMK A01 T03471024  RH  009%=      5-min Rain = 0
KVA1 162002Z 25007KT 35/M02 A2995 RMK A01 T03511019  RH  009%=      5-min Rain = 0
KVA1 162003Z 30009KT 35/M02 A2994 RMK A01 T03531018  RH  009%=      5-min Rain = 0
KVA1 162004Z 29011KT 35/M02 A2994 RMK A01 T03511015  RH  010%=      5-min Rain = 0
KVA1 162005Z 29012KT 35/M01 A2994 RMK A01 T03521012  RH  010%=      5-min Rain = 0
KVA1 162006Z 30009G14KT 35/M01 A2994 RMK A01 T03531012  RH  010%=      5-min Rain = 0
KVA1 162007Z 30007KT 35/M02 A2994 RMK A01 T03541015  RH  010%=      5-min Rain = 0
KVA1 162008Z 30008KT 36/M01 A2994 RMK A01 T03551011  RH  010%=      5-min Rain = 0
KVA1 162009Z 30007KT 36/M01 A2994 RMK A01 T03571010  RH  010%=      5-min Rain = 0
KVA1 162010Z 29007KT 36/M01 A2994 RMK A01 T03551012  RH  010%=      5-min Rain = 0
KVA1 162011Z 28009KT 36/M01 A2994 RMK A01 T03551011  RH  010%=      5-min Rain = 0
KVA1 162012Z 26008KT 35/M01 A2994 RMK A01 T03541012  RH  010%=      5-min Rain = 0
KVA1 162013Z 26009KT 35/M01 A2994 RMK A01 T03541014  RH  010%=      5-min Rain = 0
KVA1 162014Z 29011KT 35/M01 A2994 RMK A01 T03531012  RH  010%=      5-min Rain = 0
KVA1 162015Z 29012KT 36/M01 A2994 RMK A01 T03571009  RH  010%=      5-min Rain = 0
KVA1 162016Z 31010KT 36/M01 A2994 RMK A01 T03561012  RH  010%=      5-min Rain = 0
KVA1 162017Z 33006KT 35/M02 A2994 RMK A01 T03501017  RH  010%=      5-min Rain = 0
KVA1 162018Z 00006KT 35/M02 A2994 RMK A01 T03451016  RH  010%=      5-min Rain = 0
KVA1 162019Z 03005KT 35/M02 A2994 RMK A01 T03461017  RH  010%=      5-min Rain = 0
KVA1 162020Z 31004KT 35/M02 A2994 RMK A01 T03451016  RH  010%=      5-min Rain = 0
KVA1 162021Z 29006G11KT 35/M02 A2994 RMK A01 T03451015  RH  010%=      5-min Rain = 0
KVA1 162022Z 29011KT 35/M01 A2994 RMK A01 T03491010  RH  010%=      5-min Rain = 0
KVA1 162023Z 31007KT 35/M01 A2994 RMK A01 T03511013  RH  010%=      5-min Rain = 0
KVA1 162024Z 33012KT 35/M01 A2994 RMK A01 T03511012  RH  010%=      5-min Rain = 0
KVA1 162025Z 00006KT 35/M02 A2994 RMK A01 T03491016  RH  010%=      5-min Rain = 0
KVA1 162026Z 34004KT 35/M01 A2994 RMK A01 T03501013  RH  010%=      5-min Rain = 0
KVA1 162027Z 27008G13KT 35/M01 A2994 RMK A01 T03531013  RH  010%=      5-min Rain = 0
KVA1 162028Z 24011KT 35/M01 A2993 RMK A01 T03531013  RH  010%=      5-min Rain = 0
KVA1 162029Z 23012KT 35/M01 A2993 RMK A01 T03541013  RH  010%=      5-min Rain = 0
KVA1 162030Z 23010KT 36/M01 A2993 RMK A01 T03561013  RH  010%=      5-min Rain = 0
KVA1 162031Z 22010KT 36/M01 A2993 RMK A01 T03551014  RH  010%=      5-min Rain = 0
KVA1 162032Z 22010KT 35/M01 A2993 RMK A01 T03521013  RH  010%=      5-min Rain = 0
KVA1 162033Z 21007KT 35/M02 A2993 RMK A01 T03511015  RH  010%=      5-min Rain = 0
KVA1 162034Z 18005KT 35/M02 A2993 RMK A01 T03471017  RH  010%=      5-min Rain = 0
KVA1 162035Z 17003KT 35/M02 A2993 RMK A01 T03451017  RH  010%=      5-min Rain = 0
KVA1 162036Z 24003KT 35/M02 A2993 RMK A01 T03461015  RH  010%=      5-min Rain = 0
KVA1 162037Z 31009KT 35/M01 A2993 RMK A01 T03511012  RH  010%=      5-min Rain = 0
KVA1 162038Z 31011KT 36/M01 A2993 RMK A01 T03571010  RH  010%=      5-min Rain = 0
KVA1 162039Z 31007KT 36/M02 A2993 RMK A01 T03551016  RH  009%=      5-min Rain = 0
KVA1 162040Z 30004KT 35/M02 A2993 RMK A01 T03531016  RH  010%=      5-min Rain = 0
KVA1 162041Z 29007KT 35/M02 A2993 RMK A01 T03511016  RH  010%=      5-min Rain = 0
KVA1 162042Z 27005KT 35/M02 A2993 RMK A01 T03501016  RH  010%=      5-min Rain = 0
KVA1 162043Z 27006KT 35/M01 A2993 RMK A01 T03521014  RH  010%=      5-min Rain = 0
KVA1 162044Z 28007G13KT 36/M01 A2993 RMK A01 T03561012  RH  010%=      5-min Rain = 0
KVA1 162045Z 31007G12KT 36/M01 A2993 RMK A01 T03591012  RH  009%=      5-min Rain = 0
KVA1 162046Z 34006KT 36/M02 A2992 RMK A01 T03591015  RH  009%=      5-min Rain = 0
KVA1 162047Z 32009KT 36/M01 A2992 RMK A01 T03581014  RH  009%=      5-min Rain = 0
KVA1 162048Z 28008G14KT 36/M01 A2993 RMK A01 T03561013  RH  010%=      5-min Rain = 0
KVA1 162049Z 29012KT 36/M01 A2993 RMK A01 T03591010  RH  010%=      5-min Rain = 0
KVA1 162050Z 28007KT 36/M02 A2992 RMK A01 T03571015  RH  009%=      5-min Rain = 0
KVA1 162051Z 30006KT 36/M01 A2992 RMK A01 T03601009  RH  010%=      5-min Rain = 0
KVA1 162052Z 32007KT 36/M01 A2992 RMK A01 T03631012  RH  009%=      5-min Rain = 0
KVA1 162053Z 30005KT 36/M01 A2992 RMK A01 T03621013  RH  009%=      5-min Rain = 0
KVA1 162054Z 30005KT 36/M01 A2992 RMK A01 T03601013  RH  009%=      5-min Rain = 0
KVA1 162055Z 29007G15KT 36/M01 A2992 RMK A01 T03601011  RH  009%=      5-min Rain = 0
KVA1 162056Z 27013KT 36/M01 A2992 RMK A01 T03601014  RH  009%=      5-min Rain = 0
KVA1 162057Z 29014KT 36/M01 A2992 RMK A01 T03601012  RH  009%=      5-min Rain = 0
KVA1 162058Z 29008G14KT 36/M02 A2992 RMK A01 T03581015  RH  009%=      5-min Rain = 0
KVA1 162059Z 28009KT 36/M01 A2992 RMK A01 T03581014  RH  009%=      5-min Rain = 0
KVA1 162100Z 26009KT 36/M02 A2992 RMK A01 T03571015  RH  009%=      5-min Rain = 0
KVA1 162101Z 22007KT 36/M02 A2992 RMK A01 T03561016  RH  009%=      5-min Rain = 0
KVA1 162102Z 24007KT 36/M02 A2992 RMK A01 T03551017  RH  009%=      5-min Rain = 0
KVA1 162103Z 27005KT 36/M02 A2992 RMK A01 T03551015  RH  009%=      5-min Rain = 0
KVA1 162104Z 28009G15KT 36/M01 A2992 RMK A01 T03581012  RH  010%=      5-min Rain = 0
KVA1 162105Z 30011KT 36/M01 A2992 RMK A01 T03601014  RH  009%=      5-min Rain = 0
KVA1 162106Z 30010KT 36/M02 A2992 RMK A01 T03551017  RH  009%=      5-min Rain = 0
KVA1 162107Z 30009KT 35/M02 A2992 RMK A01 T03541016  RH  009%=      5-min Rain = 0
KVA1 162108Z 30009KT 35/M02 A2992 RMK A01 T03541015  RH  010%=      5-min Rain = 0
KVA1 162109Z 27009KT 35/M02 A2992 RMK A01 T03541015  RH  010%=      5-min Rain = 0
KVA1 162110Z 29007KT 35/M02 A2992 RMK A01 T03521017  RH  010%=      5-min Rain = 0
KVA1 162111Z 30006KT 35/M02 A2992 RMK A01 T03521015  RH  010%=      5-min Rain = 0
KVA1 162112Z 26008KT 35/M02 A2992 RMK A01 T03521016  RH  010%=      5-min Rain = 0
KVA1 162113Z 27006KT 35/M01 A2992 RMK A01 T03531014  RH  010%=      5-min Rain = 0
KVA1 162114Z 34009KT 35/M01 A2992 RMK A01 T03541013  RH  010%=      5-min Rain = 0
KVA1 162115Z 35008KT 36/M02 A2992 RMK A01 T03551015  RH  009%=      5-min Rain = 0
KVA1 162116Z 00009KT 35/M02 A2991 RMK A01 T03541016  RH  009%=      5-min Rain = 0
KVA1 162117Z 33008KT 35/M01 A2992 RMK A01 T03531014  RH  010%=      5-min Rain = 0
KVA1 162118Z 29009KT 36/M01 A2992 RMK A01 T03581011  RH  010%=      5-min Rain = 0
KVA1 162119Z 29006KT 36/M01 A2992 RMK A01 T03591014  RH  009%=      5-min Rain = 0
KVA1 162120Z 29004KT 36/M01 A2992 RMK A01 T03591013  RH  009%=      5-min Rain = 0
KVA1 162121Z 00003KT 36/M01 A2992 RMK A01 T03611009  RH  010%=      5-min Rain = 0
KVA1 162122Z 23007KT 36/M01 A2991 RMK A01 T03641011  RH  009%=      5-min Rain = 0
KVA1 162123Z 23008KT 37/M01 A2992 RMK A01 T03661011  RH  009%=      5-min Rain = 0
KVA1 162124Z 21009KT 37/M01 A2992 RMK A01 T03681010  RH  009%=      5-min Rain = 0
KVA1 162125Z 21008KT 37/M01 A2992 RMK A01 T03661013  RH  009%=      5-min Rain = 0
KVA1 162126Z 22007KT 36/M01 A2992 RMK A01 T03631014  RH  009%=      5-min Rain = 0
KVA1 162127Z 23008KT 36/M02 A2992 RMK A01 T03601015  RH  009%=      5-min Rain = 0
KVA1 162128Z 26005KT 36/M01 A2992 RMK A01 T03591013  RH  009%=      5-min Rain = 0
KVA1 162129Z 29004G9KT 36/M01 A2992 RMK A01 T03591014  RH  009%=      5-min Rain = 0
KVA1 162130Z 29009KT 36/M01 A2992 RMK A01 T03601012  RH  009%=      5-min Rain = 0
KVA1 162131Z 29012G17KT 36/M01 A2992 RMK A01 T03591014  RH  009%=      5-min Rain = 0
KVA1 162132Z 31007KT 36/M02 A2992 RMK A01 T03551017  RH  009%=      5-min Rain = 0
KVA1 162133Z 33006KT 35/M02 A2992 RMK A01 T03531018  RH  009%=      5-min Rain = 0
KVA1 162134Z 35003KT 35/M02 A2991 RMK A01 T03531019  RH  009%=      5-min Rain = 0
KVA1 162135Z 31004KT 35/M02 A2991 RMK A01 T03531019  RH  009%=      5-min Rain = 0
KVA1 162136Z 35006KT 35/M02 A2991 RMK A01 T03541016  RH  009%=      5-min Rain = 0
KVA1 162137Z 32011KT 36/M01 A2991 RMK A01 T03571014  RH  009%=      5-min Rain = 0
KVA1 162138Z 30009KT 36/M01 A2991 RMK A01 T03571014  RH  009%=      5-min Rain = 0
KVA1 162139Z 32007KT 35/M02 A2991 RMK A01 T03531016  RH  010%=      5-min Rain = 0
KVA1 162140Z 35006KT 35/M02 A2991 RMK A01 T03521015  RH  010%=      5-min Rain = 0
KVA1 162141Z 35010KT 35/M02 A2991 RMK A01 T03531015  RH  010%=      5-min Rain = 0
KVA1 162142Z 33007G13KT 36/M02 A2991 RMK A01 T03551015  RH  009%=      5-min Rain = 0
KVA1 162143Z 29006G12KT 36/M01 A2991 RMK A01 T03551014  RH  010%=      5-min Rain = 0
KVA1 162144Z 27009KT 36/M01 A2991 RMK A01 T03571011  RH  010%=      5-min Rain = 0
KVA1 162145Z 24007KT 36/M01 A2991 RMK A01 T03611012  RH  009%=      5-min Rain = 0
KVA1 162146Z 26007KT 36/M01 A2991 RMK A01 T03631013  RH  009%=      5-min Rain = 0
KVA1 162147Z 29006KT 36/M02 A2991 RMK A01 T03621015  RH  009%=      5-min Rain = 0
KVA1 162148Z 29004KT 36/M02 A2991 RMK A01 T03591017  RH  009%=      5-min Rain = 0
KVA1 162149Z 31004KT 36/M02 A2991 RMK A01 T03581015  RH  009%=      5-min Rain = 0
KVA1 162150Z 27004KT 36/M01 A2991 RMK A01 T03591012  RH  009%=      5-min Rain = 0
KVA1 162151Z 27004KT 36/M01 A2991 RMK A01 T03601014  RH  009%=      5-min Rain = 0
KVA1 162152Z 25009KT 36/M01 A2991 RMK A01 T03611012  RH  009%=      5-min Rain = 0
KVA1 162153Z 25011KT 36/M01 A2991 RMK A01 T03621012  RH  009%=      5-min Rain = 0
KVA1 162154Z 27007G12KT 36/M01 A2991 RMK A01 T03611013  RH  009%=      5-min Rain = 0
KVA1 162155Z 24004KT 36/M02 A2991 RMK A01 T03581017  RH  009%=      5-min Rain = 0
KVA1 162156Z 18005KT 36/M02 A2991 RMK A01 T03551017  RH  009%=      5-min Rain = 0
KVA1 162157Z 13006KT 35/M02 A2991 RMK A01 T03531016  RH  010%=      5-min Rain = 0
KVA1 162158Z 12006KT 35/M01 A299 RMK A01 T03521014  RH  010%=      5-min Rain = 0
KVA1 162159Z 14005KT 35/M02 A299 RMK A01 T03531015  RH  010%=      5-min Rain = 0
KVA1 162200Z 16004KT 35/M02 A299 RMK A01 T03521015  RH  010%=      5-min Rain = 0
KVA1 162201Z 14006KT 36/M01 A299 RMK A01 T03551009  RH  010%=      5-min Rain = 0
KVA1 162202Z 12007KT 36/M01 A299 RMK A01 T03621009  RH  010%=      5-min Rain = 0
KVA1 162203Z 12006KT 36/M02 A299 RMK A01 T03621015  RH  009%=      5-min Rain = 0
KVA1 162204Z 09005KT 36/M01 A299 RMK A01 T03581014  RH  009%=      5-min Rain = 0
KVA1 162205Z 07005KT 35/M02 A299 RMK A01 T03531016  RH  010%=      5-min Rain = 0
KVA1 162206Z 06004KT 35/M01 A299 RMK A01 T03511014  RH  010%=      5-min Rain = 0
KVA1 162207Z 08002KT 35/M02 A299 RMK A01 T03521016  RH  010%=      5-min Rain = 0
KVA1 162208Z 33007KT 35/M01 A299 RMK A01 T03521014  RH  010%=      5-min Rain = 0
KVA1 162209Z 30008KT 36/M01 A299 RMK A01 T03551012  RH  010%=      5-min Rain = 0
KVA1 162210Z 35007G12KT 36/M02 A299 RMK A01 T03551015  RH  009%=      5-min Rain = 0
KVA1 162211Z 32009KT 36/M01 A299 RMK A01 T03551014  RH  009%=      5-min Rain = 0
KVA1 162212Z 33006KT 36/M01 A299 RMK A01 T03561013  RH  010%=      5-min Rain = 0
KVA1 162213Z 01004KT 36/M01 A299 RMK A01 T03581012  RH  010%=      5-min Rain = 0
KVA1 162214Z 04004KT 36/M02 A299 RMK A01 T03601015  RH  009%=      5-min Rain = 0
KVA1 162215Z 05003KT 36/M02 A299 RMK A01 T03601016  RH  009%=      5-min Rain = 0
KVA1 162216Z 09005KT 36/M02 A2989 RMK A01 T03571016  RH  009%=      5-min Rain = 0
KVA1 162217Z 25009KT 36/M01 A299 RMK A01 T03581012  RH  010%=      5-min Rain = 0
KVA1 162218Z 29009G15KT 36/M01 A299 RMK A01 T03601014  RH  009%=      5-min Rain = 0
KVA1 162219Z 29007KT 36/M01 A299 RMK A01 T03591014  RH  009%=      5-min Rain = 0
KVA1 162220Z 27005KT 36/M01 A299 RMK A01 T03591014  RH  009%=      5-min Rain = 0
KVA1 162221Z 28007KT 36/M01 A299 RMK A01 T03601013  RH  009%=      5-min Rain = 0
KVA1 162222Z 27009KT 36/M01 A299 RMK A01 T03611013  RH  009%=      5-min Rain = 0
KVA1 162223Z 29008KT 37/M01 A299 RMK A01 T03651011  RH  009%=      5-min Rain = 0
KVA1 162224Z 30011KT 37/M01 A299 RMK A01 T03681011  RH  009%=      5-min Rain = 0
KVA1 162225Z 29010KT 37/M01 A299 RMK A01 T03681013  RH  009%=      5-min Rain = 0
KVA1 162226Z 28010KT 37/M01 A2989 RMK A01 T03661012  RH  009%=      5-min Rain = 0
KVA1 162227Z 26010G17KT 37/M01 A2989 RMK A01 T03671012  RH  009%=      5-min Rain = 0
KVA1 162228Z 27013KT 37/M01 A2989 RMK A01 T03681014  RH  009%=      5-min Rain = 0
KVA1 162229Z 26013KT 37/M02 A2989 RMK A01 T03661015  RH  009%=      5-min Rain = 0
KVA1 162230Z 27013KT 36/M02 A2989 RMK A01 T03631015  RH  009%=      5-min Rain = 0
KVA1 162231Z 26014KT 36/M02 A2989 RMK A01 T03621017  RH  009%=      5-min Rain = 0
KVA1 162232Z 26014KT 36/M02 A2989 RMK A01 T03601017  RH  009%=      5-min Rain = 0
KVA1 162233Z 28013KT 36/M02 A2989 RMK A01 T03601016  RH  009%=      5-min Rain = 0
KVA1 162234Z 28011KT 36/M01 A2989 RMK A01 T03601014  RH  009%=      5-min Rain = 0
KVA1 162235Z 27013KT 36/M02 A2989 RMK A01 T03601016  RH  009%=      5-min Rain = 0
KVA1 162236Z 27009KT 36/M02 A2989 RMK A01 T03591015  RH  009%=      5-min Rain = 0
KVA1 162237Z 27011KT 36/M01 A2989 RMK A01 T03611013  RH  009%=      5-min Rain = 0
KVA1 162238Z 28011G16KT 36/M01 A2989 RMK A01 T03631011  RH  009%=      5-min Rain = 0
KVA1 162239Z 27014KT 36/M01 A2989 RMK A01 T03641012  RH  009%=      5-min Rain = 0
KVA1 162240Z 28009G14KT 36/M01 A2989 RMK A01 T03621012  RH  009%=      5-min Rain = 0
KVA1 162241Z 29008KT 36/M01 A2989 RMK A01 T03621012  RH  009%=      5-min Rain = 0
KVA1 162242Z 28010KT 36/M01 A2989 RMK A01 T03621012  RH  009%=      5-min Rain = 0
KVA1 162243Z 27006KT 36/M01 A2989 RMK A01 T03591014  RH  009%=      5-min Rain = 0
KVA1 162244Z 25007KT 36/M01 A2989 RMK A01 T03581014  RH  009%=      5-min Rain = 0
KVA1 162245Z 24009KT 36/M01 A2989 RMK A01 T03601013  RH  009%=      5-min Rain = 0
KVA1 162246Z 24006KT 36/M01 A2989 RMK A01 T03631012  RH  009%=      5-min Rain = 0
KVA1 162247Z 23002KT 36/M02 A2989 RMK A01 T03641015  RH  009%=      5-min Rain = 0
KVA1 162248Z 26003KT 36/M02 A2989 RMK A01 T03631015  RH  009%=      5-min Rain = 0
KVA1 162249Z 29002KT 36/M01 A2989 RMK A01 T03641013  RH  009%=      5-min Rain = 0
KVA1 162250Z 16002KT 36/M02 A2989 RMK A01 T03641017  RH  009%=      5-min Rain = 0
KVA1 162251Z 24003KT 36/M02 A2989 RMK A01 T03621015  RH  009%=      5-min Rain = 0
KVA1 162252Z 29005KT 36/M02 A2989 RMK A01 T03591016  RH  009%=      5-min Rain = 0
KVA1 162253Z 32006KT 36/M01 A2989 RMK A01 T03581014  RH  009%=      5-min Rain = 0
KVA1 162254Z 30007KT 36/M01 A2989 RMK A01 T03591013  RH  009%=      5-min Rain = 0
KVA1 162255Z 29009KT 36/M01 A2989 RMK A01 T03621014  RH  009%=      5-min Rain = 0
KVA1 162256Z 29011KT 36/M01 A2989 RMK A01 T03631013  RH  009%=      5-min Rain = 0
KVA1 162257Z 29011KT 36/M02 A2989 RMK A01 T03631016  RH  009%=      5-min Rain = 0
KVA1 162258Z 30009KT 36/M02 A2989 RMK A01 T03631015  RH  009%=      5-min Rain = 0
KVA1 162259Z 29006KT 36/M02 A2988 RMK A01 T03601019  RH  009%=      5-min Rain = 0
KVA1 162300Z 33011KT 36/M02 A2988 RMK A01 T03581015  RH  009%=      5-min Rain = 0
KVA1 162301Z 33009KT 36/M01 A2989 RMK A01 T03611013  RH  009%=      5-min Rain = 0
KVA1 162302Z 32008KT 36/M01 A2989 RMK A01 T03621014  RH  009%=      5-min Rain = 0
KVA1 162303Z 31007KT 36/M02 A2989 RMK A01 T03611015  RH  009%=      5-min Rain = 0
KVA1 162304Z 30005KT 36/M02 A2989 RMK A01 T03621015  RH  009%=      5-min Rain = 0
KVA1 162305Z 28008KT 36/M02 A2988 RMK A01 T03621016  RH  009%=      5-min Rain = 0
KVA1 162306Z 32011KT 36/M02 A2988 RMK A01 T03641015  RH  009%=      5-min Rain = 0
KVA1 162307Z 31011KT 37/M01 A2989 RMK A01 T03651014  RH  009%=      5-min Rain = 0
KVA1 162308Z 32009KT 36/M02 A2989 RMK A01 T03621016  RH  009%=      5-min Rain = 0
KVA1 162309Z 34007KT 36/M02 A2989 RMK A01 T03601015  RH  009%=      5-min Rain = 0
KVA1 162310Z 34004KT 36/M02 A2988 RMK A01 T03591018  RH  009%=      5-min Rain = 0
KVA1 162311Z 35003KT 36/M02 A2988 RMK A01 T03581020  RH  009%=      5-min Rain = 0
KVA1 162312Z 33004KT 36/M02 A2988 RMK A01 T03551021  RH  009%=      5-min Rain = 0
KVA1 162313Z 27006KT 36/M02 A2989 RMK A01 T03551018  RH  009%=      5-min Rain = 0
KVA1 162314Z 26006KT 36/M02 A2988 RMK A01 T03561016  RH  009%=      5-min Rain = 0
KVA1 162315Z 26009KT 36/M01 A2988 RMK A01 T03581013  RH  009%=      5-min Rain = 0
KVA1 162316Z 28009KT 36/M01 A2988 RMK A01 T03581012  RH  010%=      5-min Rain = 0
KVA1 162317Z 26008KT 36/M01 A2988 RMK A01 T03591009  RH  010%=      5-min Rain = 0
KVA1 162318Z 26010KT 36/M01 A2988 RMK A01 T03611009  RH  010%=      5-min Rain = 0
KVA1 162319Z 27007KT 36/M01 A2988 RMK A01 T03611011  RH  009%=      5-min Rain = 0
KVA1 162320Z 30004KT 36/M01 A2988 RMK A01 T03591011  RH  010%=      5-min Rain = 0
KVA1 162321Z 29004KT 36/M01 A2988 RMK A01 T03571013  RH  010%=      5-min Rain = 0
KVA1 162322Z 29008KT 36/M01 A2988 RMK A01 T03561010  RH  010%=      5-min Rain = 0
KVA1 162323Z 29011KT 36/M01 A2988 RMK A01 T03581009  RH  010%=      5-min Rain = 0
KVA1 162324Z 30013KT 36/M01 A2988 RMK A01 T03591010  RH  010%=      5-min Rain = 0
KVA1 162325Z 29011KT 36/M01 A2988 RMK A01 T03591010  RH  010%=      5-min Rain = 0
KVA1 162326Z 29010KT 36/M01 A2988 RMK A01 T03611008  RH  010%=      5-min Rain = 0
KVA1 162327Z 27013KT 36/M01 A2988 RMK A01 T03641008  RH  010%=      5-min Rain = 0
KVA1 162328Z 29010KT 36/M01 A2988 RMK A01 T03631010  RH  009%=      5-min Rain = 0
KVA1 162329Z 29008KT 36/M01 A2988 RMK A01 T03621010  RH  009%=      5-min Rain = 0
KVA1 162330Z 30006KT 36/M01 A2988 RMK A01 T03611010  RH  009%=      5-min Rain = 0
KVA1 162331Z 30005KT 36/M01 A2988 RMK A01 T03601010  RH  010%=      5-min Rain = 0
KVA1 162332Z 33007KT 36/M01 A2988 RMK A01 T03601010  RH  010%=      5-min Rain = 0
KVA1 162333Z 32009G14KT 36/M01 A2988 RMK A01 T03601011  RH  009%=      5-min Rain = 0
KVA1 162334Z 30009KT 36/M01 A2988 RMK A01 T03601011  RH  010%=      5-min Rain = 0
KVA1 162335Z 31010KT 36/M01 A2988 RMK A01 T03621010  RH  009%=      5-min Rain = 0
KVA1 162336Z 31009KT 36/M01 A2988 RMK A01 T03601013  RH  009%=      5-min Rain = 0
KVA1 162337Z 32008KT 36/M01 A2988 RMK A01 T03571013  RH  010%=      5-min Rain = 0
KVA1 162338Z 31007KT 36/M01 A2988 RMK A01 T03561011  RH  010%=      5-min Rain = 0
KVA1 162339Z 32005KT 36/M01 A2988 RMK A01 T03561013  RH  010%=      5-min Rain = 0
KVA1 162340Z 29004KT 36/M01 A2988 RMK A01 T03571011  RH  010%=      5-min Rain = 0
KVA1 162341Z 29007KT 36/M01 A2988 RMK A01 T03601011  RH  010%=      5-min Rain = 0
KVA1 162342Z 28010KT 36/M01 A2988 RMK A01 T03601008  RH  010%=      5-min Rain = 0
KVA1 162343Z 30009KT 36/M01 A2988 RMK A01 T03581008  RH  010%=      5-min Rain = 0
KVA1 162344Z 30011KT 36/M01 A2988 RMK A01 T03581008  RH  010%=      5-min Rain = 0
KVA1 162345Z 31008KT 36/M01 A2988 RMK A01 T03581010  RH  010%=      5-min Rain = 0
KVA1 162346Z 27008KT 36/M01 A2988 RMK A01 T03571010  RH  010%=      5-min Rain = 0
KVA1 162347Z 27006KT 36/M01 A2987 RMK A01 T03561011  RH  010%=      5-min Rain = 0
KVA1 162348Z 29007KT 36/M01 A2987 RMK A01 T03571006  RH  010%=      5-min Rain = 0
KVA1 162349Z 30008KT 36/M01 A2988 RMK A01 T03591007  RH  010%=      5-min Rain = 0
KVA1 162350Z 30005KT 36/M01 A2987 RMK A01 T03571010  RH  010%=      5-min Rain = 0
KVA1 162351Z 27004KT 36/M01 A2987 RMK A01 T03551010  RH  010%=      5-min Rain = 0
KVA1 162352Z 29005KT 36/M01 A2987 RMK A01 T03551010  RH  010%=      5-min Rain = 0
KVA1 162353Z 30004KT 36/M01 A2987 RMK A01 T03551009  RH  010%=      5-min Rain = 0
KVA1 162354Z 26005KT 36/M01 A2987 RMK A01 T03561008  RH  010%=      5-min Rain = 0
KVA1 162355Z 24008KT 36/M01 A2987 RMK A01 T03581007  RH  010%=      5-min Rain = 0
KVA1 162356Z 23005KT 36/M01 A2987 RMK A01 T03581009  RH  010%=      5-min Rain = 0
KVA1 162357Z 23005KT 36/M01 A2987 RMK A01 T03581008  RH  010%=      5-min Rain = 0
KVA1 162358Z 25005KT 36/M01 A2987 RMK A01 T03571010  RH  010%=      5-min Rain = 0
KVA1 162359Z 28006KT 36/M01 A2987 RMK A01 T03561009  RH  010%=      5-min Rain = 0
KVA1 170000Z 28005KT 36/M01 A2987 RMK A01 T03561007  RH  010%=      5-min Rain = 0
KVA1 170001Z 30006KT 36/M01 A2987 RMK A01 T03581006  RH  010%=      5-min Rain = 0
KVA1 170002Z 31006KT 36/M01 A2987 RMK A01 T03571008  RH  010%=      5-min Rain = 0
KVA1 170003Z 32006KT 36/M01 A2987 RMK A01 T03581008  RH  010%=      5-min Rain = 0
KVA1 170004Z 32004KT 36/M01 A2987 RMK A01 T03571009  RH  010%=      5-min Rain = 0
KVA1 170005Z 33003KT 36/M01 A2987 RMK A01 T03561009  RH  010%=      5-min Rain = 0
KVA1 170006Z 33005KT 36/M01 A2987 RMK A01 T03571010  RH  010%=      5-min Rain = 0
KVA1 170007Z 33005KT 36/M01 A2987 RMK A01 T03571009  RH  010%=      5-min Rain = 0
KVA1 170008Z 34005KT 36/M01 A2987 RMK A01 T03561009  RH  010%=      5-min Rain = 0
KVA1 170009Z 35005KT 36/M01 A2987 RMK A01 T03561009  RH  010%=      5-min Rain = 0
KVA1 170010Z 33004KT 36/M01 A2987 RMK A01 T03581008  RH  010%=      5-min Rain = 0
KVA1 170011Z 32001KT 36/M01 A2987 RMK A01 T03571009  RH  010%=      5-min Rain = 0
KVA1 170012Z 28003KT 36/M01 A2987 RMK A01 T03561009  RH  010%=      5-min Rain = 0
KVA1 170013Z 28005KT 36/M01 A2988 RMK A01 T03561007  RH  010%=      5-min Rain = 0
KVA1 170014Z 26007G13KT 36/M00 A2988 RMK A01 T03571004  RH  010%=      5-min Rain = 0
KVA1 170015Z 23008G14KT 36/M00 A2988 RMK A01 T03601003  RH  010%=      5-min Rain = 0
KVA1 170016Z 27002KT 36/M01 A2988 RMK A01 T03601005  RH  010%=      5-min Rain = 0
KVA1 170017Z 28005KT 36/M01 A2988 RMK A01 T03601006  RH  010%=      5-min Rain = 0
KVA1 170018Z 24006KT 36/M00 A2988 RMK A01 T03611003  RH  010%=      5-min Rain = 0
KVA1 170019Z 24005KT 36/M01 A2988 RMK A01 T03621005  RH  010%=      5-min Rain = 0
KVA1 170020Z 24004KT 36/M01 A2988 RMK A01 T03601006  RH  010%=      5-min Rain = 0
KVA1 170021Z 26004KT 36/M01 A2988 RMK A01 T03591005  RH  010%=      5-min Rain = 0
KVA1 170022Z 28005KT 36/M00 A2988 RMK A01 T03611004  RH  010%=      5-min Rain = 0
KVA1 170023Z 28004KT 36/M00 A2988 RMK A01 T03621003  RH  010%=      5-min Rain = 0
KVA1 170024Z 24006KT 36/M00 A2988 RMK A01 T03631003  RH  010%=      5-min Rain = 0
KVA1 170025Z 23007KT 36/M00 A2988 RMK A01 T03621004  RH  010%=      5-min Rain = 0
KVA1 170026Z 27007KT 36/M00 A2988 RMK A01 T03601004  RH  010%=      5-min Rain = 0
KVA1 170027Z 29006KT 36/M00 A2988 RMK A01 T03601004  RH  010%=      5-min Rain = 0
KVA1 170028Z 26005KT 36/M01 A2988 RMK A01 T03591005  RH  010%=      5-min Rain = 0
KVA1 170029Z 23007KT 36/M01 A2988 RMK A01 T03591005  RH  010%=      5-min Rain = 0
KVA1 170030Z 24006KT 36/M01 A2988 RMK A01 T03591005  RH  010%=      5-min Rain = 0
KVA1 170031Z 24004KT 36/M01 A2988 RMK A01 T03571006  RH  010%=      5-min Rain = 0
KVA1 170032Z 23005KT 36/M01 A2988 RMK A01 T03561006  RH  010%=      5-min Rain = 0
KVA1 170033Z 25005KT 36/M01 A2988 RMK A01 T03561005  RH  010%=      5-min Rain = 0
KVA1 170034Z 28004KT 36/M01 A2988 RMK A01 T03561005  RH  010%=      5-min Rain = 0
KVA1 170035Z 28004KT 36/M00 A2988 RMK A01 T03561004  RH  010%=      5-min Rain = 0
KVA1 170036Z 30004KT 36/M00 A2988 RMK A01 T03581002  RH  010%=      5-min Rain = 0
KVA1 170037Z 29014KT 36/M00 A2988 RMK A01 T03601002  RH  010%=      5-min Rain = 0
KVA1 170038Z 26013KT 36/M01 A2988 RMK A01 T03581006  RH  010%=      5-min Rain = 0
KVA1 170039Z 25009KT 36/M01 A2988 RMK A01 T03551007  RH  010%=      5-min Rain = 0
KVA1 170040Z 24009KT 35/M01 A2988 RMK A01 T03541007  RH  010%=      5-min Rain = 0
KVA1 170041Z 24008KT 35/M01 A2988 RMK A01 T03541006  RH  010%=      5-min Rain = 0
KVA1 170042Z 25008KT 35/M01 A2988 RMK A01 T03541006  RH  010%=      5-min Rain = 0
KVA1 170043Z 27008KT 35/M01 A2988 RMK A01 T03541007  RH  010%=      5-min Rain = 0
KVA1 170044Z 29007KT 35/M01 A2988 RMK A01 T03541006  RH  010%=      5-min Rain = 0
KVA1 170045Z 27008KT 35/M01 A2988 RMK A01 T03541006  RH  010%=      5-min Rain = 0
KVA1 170046Z 27008KT 35/M01 A2988 RMK A01 T03541006  RH  010%=      5-min Rain = 0
KVA1 170047Z 25007KT 35/M01 A2988 RMK A01 T03531009  RH  010%=      5-min Rain = 0
KVA1 170048Z 24007KT 35/M01 A2988 RMK A01 T03521009  RH  010%=      5-min Rain = 0
KVA1 170049Z 24006KT 35/M01 A2988 RMK A01 T03511008  RH  010%=      5-min Rain = 0
KVA1 170050Z 22006KT 35/M01 A2988 RMK A01 T03521009  RH  010%=      5-min Rain = 0
KVA1 170051Z 22004KT 35/M01 A2988 RMK A01 T03511009  RH  010%=      5-min Rain = 0
KVA1 170052Z 22004KT 35/M01 A2988 RMK A01 T03511008  RH  010%=      5-min Rain = 0
KVA1 170053Z 24004KT 35/M01 A2988 RMK A01 T03501010  RH  010%=      5-min Rain = 0
KVA1 170054Z 24005KT 35/M01 A2988 RMK A01 T03491009  RH  010%=      5-min Rain = 0
KVA1 170055Z 25004KT 35/M01 A2988 RMK A01 T03491008  RH  010%=      5-min Rain = 0
KVA1 170056Z 27006KT 35/M01 A2988 RMK A01 T03511006  RH  010%=      5-min Rain = 0
KVA1 170057Z 27006KT 35/M01 A2988 RMK A01 T03521006  RH  010%=      5-min Rain = 0
KVA1 170058Z 27006KT 35/M01 A2988 RMK A01 T03521008  RH  010%=      5-min Rain = 0
KVA1 170059Z 29010KT 35/M01 A2988 RMK A01 T03521009  RH  010%=      5-min Rain = 0
KVA1 170100Z 29008KT 35/M01 A2988 RMK A01 T03511010  RH  010%=      5-min Rain = 0
KVA1 170101Z 27004KT 35/M01 A2988 RMK A01 T03501011  RH  010%=      5-min Rain = 0
KVA1 170102Z 28004KT 35/M01 A2988 RMK A01 T03501012  RH  010%=      5-min Rain = 0
KVA1 170103Z 32006KT 35/M01 A2988 RMK A01 T03501010  RH  010%=      5-min Rain = 0
KVA1 170104Z 30007KT 35/M01 A2988 RMK A01 T03501009  RH  010%=      5-min Rain = 0
KVA1 170105Z 31006KT 35/M01 A2988 RMK A01 T03501009  RH  010%=      5-min Rain = 0
KVA1 170106Z 30006KT 35/M01 A2988 RMK A01 T03501009  RH  010%=      5-min Rain = 0
KVA1 170107Z 29005KT 35/M01 A2988 RMK A01 T03491011  RH  010%=      5-min Rain = 0
KVA1 170108Z 29005KT 35/M01 A2988 RMK A01 T03491011  RH  010%=      5-min Rain = 0
KVA1 170109Z 30004KT 35/M01 A2988 RMK A01 T03481010  RH  010%=      5-min Rain = 0
KVA1 170110Z 30004KT 35/M01 A2988 RMK A01 T03481012  RH  010%=      5-min Rain = 0
KVA1 170111Z 31003KT 35/M01 A2988 RMK A01 T03481011  RH  010%=      5-min Rain = 0
KVA1 170112Z 30004KT 35/M01 A2988 RMK A01 T03491009  RH  010%=      5-min Rain = 0
KVA1 170113Z 29006KT 35/M01 A2988 RMK A01 T03491010  RH  010%=      5-min Rain = 0
KVA1 170114Z 30008KT 35/M01 A2988 RMK A01 T03481012  RH  010%=      5-min Rain = 0
KVA1 170115Z 29006KT 35/M01 A2988 RMK A01 T03461013  RH  010%=      5-min Rain = 0
KVA1 170116Z 29005KT 35/M01 A2988 RMK A01 T03451013  RH  010%=      5-min Rain = 0
KVA1 170117Z 28009KT 34/M01 A2988 RMK A01 T03441013  RH  010%=      5-min Rain = 0
KVA1 170118Z 28007KT 34/M02 A2988 RMK A01 T03431015  RH  010%=      5-min Rain = 0
KVA1 170119Z 28007KT 34/M02 A2988 RMK A01 T03421015  RH  010%=      5-min Rain = 0
KVA1 170120Z 28008KT 34/M02 A2988 RMK A01 T03411015  RH  010%=      5-min Rain = 0
KVA1 170121Z 28006KT 34/M02 A2988 RMK A01 T03411016  RH  010%=      5-min Rain = 0
KVA1 170122Z 28005KT 34/M02 A2988 RMK A01 T03411016  RH  010%=      5-min Rain = 0
KVA1 170123Z 28005KT 34/M02 A2988 RMK A01 T03411017  RH  010%=      5-min Rain = 0
KVA1 170124Z 26005KT 34/M02 A2988 RMK A01 T03411016  RH  010%=      5-min Rain = 0
KVA1 170125Z 26007KT 34/M02 A2989 RMK A01 T03421016  RH  010%=      5-min Rain = 0
KVA1 170126Z 26008KT 34/M02 A2989 RMK A01 T03421018  RH  010%=      5-min Rain = 0
KVA1 170127Z 26008KT 34/M02 A2989 RMK A01 T03431018  RH  010%=      5-min Rain = 0
KVA1 170128Z 28008KT 34/M02 A2989 RMK A01 T03431018  RH  010%=      5-min Rain = 0
KVA1 170129Z 28007KT 34/M02 A2989 RMK A01 T03431017  RH  010%=      5-min Rain = 0
KVA1 170130Z 27007KT 34/M02 A2989 RMK A01 T03431017  RH  010%=      5-min Rain = 0
KVA1 170131Z 27006KT 34/M02 A2989 RMK A01 T03431018  RH  010%=      5-min Rain = 0
KVA1 170132Z 29007KT 34/M02 A2989 RMK A01 T03421017  RH  010%=      5-min Rain = 0
KVA1 170133Z 28006KT 34/M02 A2989 RMK A01 T03421017  RH  010%=      5-min Rain = 0
KVA1 170134Z 27006KT 34/M02 A2989 RMK A01 T03421019  RH  010%=      5-min Rain = 0
KVA1 170135Z 27005KT 34/M02 A2989 RMK A01 T03421020  RH  010%=      5-min Rain = 0
KVA1 170136Z 28006KT 34/M02 A2989 RMK A01 T03421019  RH  010%=      5-min Rain = 0
KVA1 170137Z 29006KT 34/M02 A2989 RMK A01 T03411017  RH  010%=      5-min Rain = 0
KVA1 170138Z 28005KT 34/M02 A2989 RMK A01 T03401018  RH  010%=      5-min Rain = 0
KVA1 170139Z 28004KT 34/M02 A2989 RMK A01 T03401020  RH  010%=      5-min Rain = 0
KVA1 170140Z 25003KT 34/M02 A2989 RMK A01 T03401019  RH  010%=      5-min Rain = 0
KVA1 170141Z 25006KT 34/M02 A2989 RMK A01 T03401018  RH  010%=      5-min Rain = 0
KVA1 170142Z 26006KT 34/M02 A2989 RMK A01 T03401018  RH  010%=      5-min Rain = 0
KVA1 170143Z 27006KT 34/M02 A2989 RMK A01 T03391018  RH  010%=      5-min Rain = 0
KVA1 170144Z 27006KT 34/M02 A2989 RMK A01 T03391018  RH  010%=      5-min Rain = 0
KVA1 170145Z 28005KT 34/M02 A2989 RMK A01 T03381017  RH  010%=      5-min Rain = 0
KVA1 170146Z 28005KT 34/M02 A2989 RMK A01 T03371016  RH  010%=      5-min Rain = 0
KVA1 170147Z 29004KT 34/M01 A2989 RMK A01 T03371014  RH  011%=      5-min Rain = 0
KVA1 170148Z 29004KT 34/M01 A2989 RMK A01 T03351014  RH  011%=      5-min Rain = 0
KVA1 170149Z 29004KT 33/M01 A2989 RMK A01 T03341013  RH  011%=      5-min Rain = 0
KVA1 170150Z 29004KT 33/M01 A2989 RMK A01 T03331013  RH  011%=      5-min Rain = 0
KVA1 170151Z 28004KT 33/M01 A2989 RMK A01 T03321012  RH  011%=      5-min Rain = 0
KVA1 170152Z 29004KT 33/M01 A2989 RMK A01 T03311011  RH  011%=      5-min Rain = 0
KVA1 170153Z 30004KT 33/M01 A2989 RMK A01 T03301010  RH  011%=      5-min Rain = 0
KVA1 170154Z 30004KT 33/M01 A2989 RMK A01 T03281010  RH  011%=      5-min Rain = 0
KVA1 170155Z 30005KT 33/M01 A2989 RMK A01 T03271009  RH  012%=      5-min Rain = 0
KVA1 170156Z 30004KT 33/M01 A2989 RMK A01 T03261009  RH  012%=      5-min Rain = 0
KVA1 170157Z 31005KT 33/M01 A299 RMK A01 T03251008  RH  012%=      5-min Rain = 0
KVA1 170158Z 30005KT 33/M01 A299 RMK A01 T03251008  RH  012%=      5-min Rain = 0
KVA1 170159Z 30005KT 32/M01 A299 RMK A01 T03241008  RH  012%=      5-min Rain = 0
KVA1 170200Z 30004KT 32/M01 A299 RMK A01 T03231007  RH  012%=      5-min Rain = 0
KVA1 170201Z 30005KT 32/M01 A299 RMK A01 T03211007  RH  012%=      5-min Rain = 0
KVA1 170202Z 31004KT 32/M01 A299 RMK A01 T03201007  RH  012%=      5-min Rain = 0
KVA1 170203Z 31005KT 32/M01 A299 RMK A01 T03201007  RH  012%=      5-min Rain = 0
KVA1 170204Z 32005KT 32/M01 A299 RMK A01 T03191007  RH  012%=      5-min Rain = 0
KVA1 170205Z 34004KT 32/M01 A299 RMK A01 T03181006  RH  012%=      5-min Rain = 0
KVA1 170206Z 34005KT 32/M01 A299 RMK A01 T03161005  RH  013%=      5-min Rain = 0
KVA1 170207Z 35006KT 32/M01 A299 RMK A01 T03151006  RH  013%=      5-min Rain = 0
KVA1 170208Z 35006KT 32/00 A299 RMK A01 T03150004  RH  014%=      5-min Rain = 0
KVA1 170209Z 34006KT 32/01 A299 RMK A01 T03150008  RH  014%=      5-min Rain = 0
KVA1 170210Z 33004KT 32/01 A299 RMK A01 T03150008  RH  014%=      5-min Rain = 0
KVA1 170211Z 31005KT 32/00 A299 RMK A01 T03150004  RH  014%=      5-min Rain = 0
KVA1 170212Z 29006KT 31/00 A299 RMK A01 T03130002  RH  014%=      5-min Rain = 0
KVA1 170213Z 30005KT 31/00 A299 RMK A01 T03100001  RH  014%=      5-min Rain = 0
KVA1 170214Z 31005KT 31/00 A299 RMK A01 T03090000  RH  014%=      5-min Rain = 0
KVA1 170215Z 31006KT 31/00 A299 RMK A01 T03080002  RH  014%=      5-min Rain = 0
KVA1 170216Z 32008KT 31/01 A299 RMK A01 T03080013  RH  015%=      5-min Rain = 0
KVA1 170217Z 01004KT 31/02 A299 RMK A01 T03110021  RH  016%=      5-min Rain = 0
KVA1 170218Z 11003KT 31/02 A299 RMK A01 T03120016  RH  015%=      5-min Rain = 0
KVA1 170219Z 11004KT 31/02 A299 RMK A01 T03110015  RH  015%=      5-min Rain = 0
KVA1 170220Z 07006KT 31/03 A2991 RMK A01 T03100031  RH  017%=      5-min Rain = 0
KVA1 170221Z 07010KT 31/04 A2991 RMK A01 T03100039  RH  018%=      5-min Rain = 0
KVA1 170222Z 06009KT 31/04 A2991 RMK A01 T03120041  RH  018%=      5-min Rain = 0
KVA1 170223Z 06009KT 31/04 A2991 RMK A01 T03140040  RH  018%=      5-min Rain = 0
KVA1 170224Z 05009KT 31/04 A2991 RMK A01 T03140040  RH  018%=      5-min Rain = 0
KVA1 170225Z 04007KT 31/04 A2991 RMK A01 T03140040  RH  018%=      5-min Rain = 0
KVA1 170226Z 04007G12KT 31/04 A2991 RMK A01 T03140041  RH  018%=      5-min Rain = 0
KVA1 170227Z 06008KT 31/04 A2991 RMK A01 T03140042  RH  018%=      5-min Rain = 0
KVA1 170228Z 06007KT 31/04 A2991 RMK A01 T03130042  RH  018%=      5-min Rain = 0
KVA1 170229Z 06009KT 31/04 A2991 RMK A01 T03120044  RH  018%=      5-min Rain = 0
KVA1 170230Z 07009KT 31/05 A2991 RMK A01 T03120047  RH  019%=      5-min Rain = 0
KVA1 170231Z 07009KT 31/05 A2991 RMK A01 T03110047  RH  019%=      5-min Rain = 0
KVA1 170232Z 07010KT 31/05 A2991 RMK A01 T03100049  RH  019%=      5-min Rain = 0
KVA1 170233Z 07008KT 31/05 A2991 RMK A01 T03090049  RH  019%=      5-min Rain = 0
KVA1 170234Z 07008KT 31/05 A2991 RMK A01 T03090049  RH  019%=      5-min Rain = 0
KVA1 170235Z 07007KT 31/05 A2991 RMK A01 T03080049  RH  020%=      5-min Rain = 0
KVA1 170236Z 08007KT 31/05 A2991 RMK A01 T03070050  RH  020%=      5-min Rain = 0
KVA1 170237Z 08007KT 31/05 A2991 RMK A01 T03060050  RH  020%=      5-min Rain = 0
KVA1 170238Z 09006KT 31/05 A2991 RMK A01 T03060050  RH  020%=      5-min Rain = 0
KVA1 170239Z 09006KT 31/05 A2991 RMK A01 T03050050  RH  020%=      5-min Rain = 0
KVA1 170240Z 09006KT 30/05 A2991 RMK A01 T03040051  RH  020%=      5-min Rain = 0
KVA1 170241Z 09007KT 30/05 A2991 RMK A01 T03040051  RH  020%=      5-min Rain = 0
KVA1 170242Z 09005KT 30/05 A2991 RMK A01 T03040052  RH  020%=      5-min Rain = 0
KVA1 170243Z 08005KT 30/05 A2991 RMK A01 T03040052  RH  020%=      5-min Rain = 0
KVA1 170244Z 08007KT 30/05 A2991 RMK A01 T03020052  RH  021%=      5-min Rain = 0
KVA1 170245Z 07007KT 30/05 A2991 RMK A01 T03020053  RH  021%=      5-min Rain = 0
KVA1 170246Z 07006KT 30/05 A2991 RMK A01 T03010052  RH  021%=      5-min Rain = 0
KVA1 170247Z 07005KT 30/05 A2991 RMK A01 T03010053  RH  021%=      5-min Rain = 0
KVA1 170248Z 06005KT 30/05 A2992 RMK A01 T03010053  RH  021%=      5-min Rain = 0
KVA1 170249Z 05004KT 30/05 A2992 RMK A01 T03010053  RH  021%=      5-min Rain = 0
KVA1 170250Z 02003KT 30/05 A2992 RMK A01 T03010053  RH  021%=      5-min Rain = 0
KVA1 170251Z 35004KT 30/05 A2992 RMK A01 T03010053  RH  021%=      5-min Rain = 0
KVA1 170252Z 34003KT 30/05 A2992 RMK A01 T02990052  RH  021%=      5-min Rain = 0
KVA1 170253Z 33003KT 30/05 A2992 RMK A01 T02970052  RH  021%=      5-min Rain = 0
KVA1 170254Z 32004KT 30/05 A2992 RMK A01 T02950051  RH  021%=      5-min Rain = 0
KVA1 170255Z 32004KT 29/05 A2992 RMK A01 T02930050  RH  021%=      5-min Rain = 0
KVA1 170256Z 32004KT 29/05 A2992 RMK A01 T02920051  RH  022%=      5-min Rain = 0
KVA1 170257Z 32004KT 29/05 A2992 RMK A01 T02920050  RH  022%=      5-min Rain = 0
KVA1 170258Z 32005KT 29/05 A2992 RMK A01 T02910050  RH  022%=      5-min Rain = 0
KVA1 170259Z 34005KT 29/05 A2992 RMK A01 T02890049  RH  022%=      5-min Rain = 0
KVA1 170300Z 35004KT 29/05 A2992 RMK A01 T02880050  RH  022%=      5-min Rain = 0
KVA1 170301Z 00004KT 29/05 A2992 RMK A01 T02870050  RH  022%=      5-min Rain = 0
KVA1 170302Z 00004KT 29/05 A2992 RMK A01 T02870051  RH  022%=      5-min Rain = 0
KVA1 170303Z 36003KT 29/05 A2992 RMK A01 T02860051  RH  022%=      5-min Rain = 0
KVA1 170304Z 36003KT 29/05 A2992 RMK A01 T02860051  RH  022%=      5-min Rain = 0
KVA1 170305Z 35003KT 29/05 A2992 RMK A01 T02850051  RH  023%=      5-min Rain = 0
KVA1 170306Z 00003KT 28/05 A2992 RMK A01 T02830050  RH  023%=      5-min Rain = 0
KVA1 170307Z 00002KT 28/05 A2992 RMK A01 T02830050  RH  023%=      5-min Rain = 0
KVA1 170308Z 36002KT 28/05 A2992 RMK A01 T02820050  RH  023%=      5-min Rain = 0
KVA1 170309Z 36002KT 28/05 A2992 RMK A01 T02820050  RH  023%=      5-min Rain = 0
KVA1 170310Z 00001KT 28/05 A2992 RMK A01 T02810050  RH  023%=      5-min Rain = 0
KVA1 170311Z 01001KT 28/05 A2992 RMK A01 T02810051  RH  023%=      5-min Rain = 0
KVA1 170312Z 00000KT 28/05 A2992 RMK A01 T02800051  RH  023%=      5-min Rain = 0
KVA1 170313Z 04001KT 28/05 A2992 RMK A01 T02800052  RH  023%=      5-min Rain = 0
KVA1 170314Z 04002KT 28/05 A2992 RMK A01 T02800052  RH  023%=      5-min Rain = 0
KVA1 170315Z 04001KT 28/05 A2993 RMK A01 T02800052  RH  023%=      5-min Rain = 0
KVA1 170316Z 05002KT 28/05 A2993 RMK A01 T02810052  RH  023%=      5-min Rain = 0
KVA1 170317Z 05001KT 28/05 A2993 RMK A01 T02810052  RH  023%=      5-min Rain = 0
KVA1 170318Z 05002KT 28/05 A2993 RMK A01 T02820052  RH  023%=      5-min Rain = 0
KVA1 170319Z 04002KT 28/05 A2993 RMK A01 T02820052  RH  023%=      5-min Rain = 0
KVA1 170320Z 02003KT 28/05 A2993 RMK A01 T02810052  RH  023%=      5-min Rain = 0
KVA1 170321Z 01004KT 28/05 A2993 RMK A01 T02780052  RH  024%=      5-min Rain = 0
KVA1 170322Z 35005KT 28/05 A2993 RMK A01 T02760053  RH  024%=      5-min Rain = 0
KVA1 170323Z 35004KT 28/05 A2993 RMK A01 T02750053  RH  024%=      5-min Rain = 0
KVA1 170324Z 36005KT 27/05 A2993 RMK A01 T02740053  RH  024%=      5-min Rain = 0
KVA1 170325Z 35005KT 28/05 A2993 RMK A01 T02760053  RH  024%=      5-min Rain = 0
KVA1 170326Z 35005KT 28/05 A2993 RMK A01 T02770053  RH  024%=      5-min Rain = 0
KVA1 170327Z 35004KT 28/05 A2993 RMK A01 T02790054  RH  024%=      5-min Rain = 0
KVA1 170328Z 35006KT 28/05 A2993 RMK A01 T02790053  RH  024%=      5-min Rain = 0
KVA1 170329Z 35005KT 28/05 A2993 RMK A01 T02790054  RH  024%=      5-min Rain = 0
KVA1 170330Z 36006KT 28/05 A2993 RMK A01 T02780054  RH  024%=      5-min Rain = 0
KVA1 170331Z 00005KT 28/05 A2993 RMK A01 T02770054  RH  024%=      5-min Rain = 0
KVA1 170332Z 00005KT 28/05 A2993 RMK A01 T02760054  RH  024%=      5-min Rain = 0
KVA1 170333Z 01005KT 28/05 A2993 RMK A01 T02760054  RH  024%=      5-min Rain = 0
KVA1 170334Z 00006KT 28/06 A2993 RMK A01 T02770055  RH  024%=      5-min Rain = 0
KVA1 170335Z 00005KT 28/05 A2993 RMK A01 T02760054  RH  024%=      5-min Rain = 0
KVA1 170336Z 02004KT 28/05 A2993 RMK A01 T02760054  RH  024%=      5-min Rain = 0
KVA1 170337Z 02004KT 28/05 A2993 RMK A01 T02750054  RH  024%=      5-min Rain = 0
KVA1 170338Z 01006KT 28/05 A2993 RMK A01 T02750054  RH  024%=      5-min Rain = 0
KVA1 170339Z 01007KT 28/06 A2993 RMK A01 T02750055  RH  025%=      5-min Rain = 0
KVA1 170340Z 36006KT 28/06 A2993 RMK A01 T02760055  RH  025%=      5-min Rain = 0
KVA1 170341Z 36005KT 28/06 A2993 RMK A01 T02770055  RH  024%=      5-min Rain = 0
KVA1 170342Z 01006KT 28/06 A2993 RMK A01 T02770055  RH  024%=      5-min Rain = 0
KVA1 170343Z 00004KT 28/06 A2993 RMK A01 T02770055  RH  024%=      5-min Rain = 0
KVA1 170344Z 35006KT 28/06 A2993 RMK A01 T02770055  RH  024%=      5-min Rain = 0
KVA1 170345Z 35006KT 28/06 A2993 RMK A01 T02770056  RH  024%=      5-min Rain = 0
KVA1 170346Z 35006KT 28/06 A2993 RMK A01 T02770056  RH  025%=      5-min Rain = 0
KVA1 170347Z 36005KT 28/06 A2993 RMK A01 T02780057  RH  024%=      5-min Rain = 0
KVA1 170348Z 36005KT 28/06 A2993 RMK A01 T02780057  RH  024%=      5-min Rain = 0
KVA1 170349Z 35005KT 28/06 A2993 RMK A01 T02780057  RH  024%=      5-min Rain = 0
KVA1 170350Z 35005KT 28/06 A2994 RMK A01 T02780057  RH  024%=      5-min Rain = 0
KVA1 170351Z 35006KT 28/06 A2994 RMK A01 T02770057  RH  025%=      5-min Rain = 0
KVA1 170352Z 35007KT 28/06 A2994 RMK A01 T02760057  RH  025%=      5-min Rain = 0
KVA1 170353Z 35007KT 28/06 A2994 RMK A01 T02750057  RH  025%=      5-min Rain = 0
KVA1 170354Z 34006KT 28/06 A2994 RMK A01 T02750057  RH  025%=      5-min Rain = 0
KVA1 170355Z 35005KT 28/06 A2994 RMK A01 T02750057  RH  025%=      5-min Rain = 0
KVA1 170356Z 35006KT 28/06 A2994 RMK A01 T02750058  RH  025%=      5-min Rain = 0
KVA1 170357Z 34005KT 27/06 A2994 RMK A01 T02740057  RH  025%=      5-min Rain = 0
KVA1 170358Z 35006KT 27/06 A2994 RMK A01 T02730057  RH  025%=      5-min Rain = 0
KVA1 170359Z 35006KT 27/06 A2994 RMK A01 T02730058  RH  025%=      5-min Rain = 0
KVA1 170400Z 36006KT 27/06 A2994 RMK A01 T02730057  RH  025%=      5-min Rain = 0
KVA1 170401Z 35005KT 27/06 A2994 RMK A01 T02720058  RH  025%=      5-min Rain = 0
KVA1 170402Z 35006KT 27/06 A2994 RMK A01 T02720058  RH  026%=      5-min Rain = 0
KVA1 170403Z 35006KT 27/06 A2994 RMK A01 T02720058  RH  026%=      5-min Rain = 0
KVA1 170404Z 35005KT 27/06 A2994 RMK A01 T02720058  RH  026%=      5-min Rain = 0
KVA1 170405Z 35006KT 27/06 A2994 RMK A01 T02720058  RH  026%=      5-min Rain = 0
KVA1 170406Z 35005KT 27/06 A2994 RMK A01 T02720058  RH  026%=      5-min Rain = 0
KVA1 170407Z 35006KT 27/06 A2994 RMK A01 T02720058  RH  026%=      5-min Rain = 0
KVA1 170408Z 35006KT 27/06 A2994 RMK A01 T02710058  RH  026%=      5-min Rain = 0
KVA1 170409Z 35005KT 27/06 A2994 RMK A01 T02710058  RH  026%=      5-min Rain = 0
KVA1 170410Z 35006KT 27/06 A2994 RMK A01 T02700058  RH  026%=      5-min Rain = 0
KVA1 170411Z 34006KT 27/06 A2994 RMK A01 T02700059  RH  026%=      5-min Rain = 0
KVA1 170412Z 34006KT 27/06 A2994 RMK A01 T02710059  RH  026%=      5-min Rain = 0
KVA1 170413Z 34006KT 27/06 A2994 RMK A01 T02700058  RH  026%=      5-min Rain = 0
KVA1 170414Z 34007KT 27/06 A2994 RMK A01 T02690058  RH  026%=      5-min Rain = 0
KVA1 170415Z 34006KT 27/06 A2994 RMK A01 T02700059  RH  026%=      5-min Rain = 0
KVA1 170416Z 34006KT 27/06 A2994 RMK A01 T02700059  RH  026%=      5-min Rain = 0
KVA1 170417Z 34006KT 27/06 A2994 RMK A01 T02700059  RH  026%=      5-min Rain = 0
KVA1 170418Z 34006KT 27/06 A2994 RMK A01 T02690059  RH  026%=      5-min Rain = 0
KVA1 170419Z 34006KT 27/06 A2995 RMK A01 T02690059  RH  026%=      5-min Rain = 0
KVA1 170420Z 34007KT 27/06 A2995 RMK A01 T02690059  RH  026%=      5-min Rain = 0
KVA1 170421Z 35006KT 27/06 A2995 RMK A01 T02680059  RH  026%=      5-min Rain = 0
KVA1 170422Z 35006KT 27/06 A2995 RMK A01 T02680058  RH  026%=      5-min Rain = 0
KVA1 170423Z 35006KT 27/06 A2995 RMK A01 T02690059  RH  026%=      5-min Rain = 0
KVA1 170424Z 34006KT 27/06 A2995 RMK A01 T02690059  RH  026%=      5-min Rain = 0
KVA1 170425Z 35006KT 27/06 A2995 RMK A01 T02690059  RH  026%=      5-min Rain = 0
KVA1 170426Z 35005KT 27/06 A2995 RMK A01 T02690059  RH  026%=      5-min Rain = 0
KVA1 170427Z 35005KT 27/06 A2995 RMK A01 T02690059  RH  026%=      5-min Rain = 0
KVA1 170428Z 35005KT 27/06 A2995 RMK A01 T02690059  RH  026%=      5-min Rain = 0
KVA1 170429Z 35005KT 27/06 A2995 RMK A01 T02690059  RH  026%=      5-min Rain = 0
KVA1 170430Z 35005KT 27/06 A2995 RMK A01 T02690059  RH  026%=      5-min Rain = 0
KVA1 170431Z 35005KT 27/06 A2995 RMK A01 T02690059  RH  026%=      5-min Rain = 0
KVA1 170432Z 35006KT 27/06 A2995 RMK A01 T02690059  RH  026%=      5-min Rain = 0
KVA1 170433Z 35006KT 27/06 A2995 RMK A01 T02690059  RH  026%=      5-min Rain = 0
KVA1 170434Z 35006KT 27/06 A2995 RMK A01 T02680059  RH  026%=      5-min Rain = 0
KVA1 170435Z 35006KT 27/06 A2995 RMK A01 T02690060  RH  026%=      5-min Rain = 0
KVA1 170436Z 35006KT 27/06 A2995 RMK A01 T02690060  RH  026%=      5-min Rain = 0
KVA1 170437Z 35006KT 27/06 A2995 RMK A01 T02690060  RH  026%=      5-min Rain = 0
KVA1 170438Z 35006KT 27/06 A2995 RMK A01 T02690060  RH  026%=      5-min Rain = 0
KVA1 170439Z 35006KT 27/06 A2995 RMK A01 T02690060  RH  026%=      5-min Rain = 0
KVA1 170440Z 35006KT 27/06 A2995 RMK A01 T02690060  RH  026%=      5-min Rain = 0
KVA1 170441Z 35006KT 27/06 A2995 RMK A01 T02690061  RH  027%=      5-min Rain = 0
KVA1 170442Z 35007KT 27/06 A2995 RMK A01 T02680060  RH  027%=      5-min Rain = 0
KVA1 170443Z 35006KT 27/06 A2995 RMK A01 T02680060  RH  027%=      5-min Rain = 0
KVA1 170444Z 35006KT 27/06 A2995 RMK A01 T02680060  RH  027%=      5-min Rain = 0
KVA1 170445Z 35006KT 27/06 A2995 RMK A01 T02680061  RH  027%=      5-min Rain = 0
KVA1 170446Z 35005KT 27/06 A2995 RMK A01 T02680061  RH  027%=      5-min Rain = 0
KVA1 170447Z 35005KT 27/06 A2995 RMK A01 T02670061  RH  027%=      5-min Rain = 0
KVA1 170448Z 35006KT 27/06 A2995 RMK A01 T02670061  RH  027%=      5-min Rain = 0
KVA1 170449Z 35006KT 27/06 A2995 RMK A01 T02670061  RH  027%=      5-min Rain = 0
KVA1 170450Z 35006KT 27/06 A2995 RMK A01 T02670061  RH  027%=      5-min Rain = 0
KVA1 170451Z 35006KT 27/06 A2995 RMK A01 T02660061  RH  027%=      5-min Rain = 0
KVA1 170452Z 35006KT 27/06 A2995 RMK A01 T02660061  RH  027%=      5-min Rain = 0
KVA1 170453Z 35006KT 27/06 A2995 RMK A01 T02660061  RH  027%=      5-min Rain = 0
KVA1 170454Z 35006KT 27/06 A2995 RMK A01 T02650060  RH  027%=      5-min Rain = 0
KVA1 170455Z 35006KT 26/06 A2995 RMK A01 T02640060  RH  027%=      5-min Rain = 0
KVA1 170456Z 35006KT 26/06 A2995 RMK A01 T02640060  RH  027%=      5-min Rain = 0
KVA1 170457Z 35006KT 26/06 A2995 RMK A01 T02640061  RH  027%=      5-min Rain = 0
KVA1 170458Z 35006KT 26/06 A2995 RMK A01 T02640061  RH  027%=      5-min Rain = 0
KVA1 170459Z 35006KT 26/06 A2995 RMK A01 T02640061  RH  027%=      5-min Rain = 0

Page generated in 0.0886 seconds.